NOAA Web Site Link Tides and Currents Home Page Transparent placeholder image

PORTS® Data Listing: 8638901 CBBT, Chesapeake Channel, VA

CO-OPS RAW PORTS DATA

************************      PRELIMINARY DATA      ************************** 

     THIS RAW DATA HAS NOT BEEN SUBJECT TO THE NATIONAL OCEAN SERVICE'S        
     QUALITY CONTROL OR QUALITY ASSURANCE PROCEDURES AND DOES NOT MEET         
     THE CRITERIA AND STANDARDS OF OFFICIAL NATIONAL OCEAN SERVICE             
     DATA.  IT IS RELEASED FOR LIMITED PUBLIC USE AS PRELIMINARY DATA TO       
     BE USED ONLY WITH APPROPRIATE CAUTION.                                    

************************      PRELIMINARY DATA      ************************** 


       CD   -   Calendar date
       T    -   Time
       TZ   -   Timezone
       PW   -   Predicted water level (feet above MLLW)
       OW   -   Observed water level (feet above MLLW)
       WS   -   Wind speed (knots)
       WD   -   Wind direction (degrees true)
       WG   -   Wind gust (knots)
       AT   -   Air temperature (degrees farenheit)
       WT   -   Water temperature (degrees farenheit)
       AP   -   Air pressure (millibars)
       SA   -   Salinty (PSU - Practical Salinity Units)
       SG   -   Specific gravity
       RH   -   Relative humidity
       AG   -   Air gap (feet)
       VI   -   Visibility (nautical miles)

       ** NOTE **
       A variable that has its data fields filled with "9"s, indicates that
       data was not collected for that sample period.
       **********

NOTICE OF PROVISIONAL DATUM
These datums and any data referred to said datum are PROVISIONAL and
subject to revision until they have been thoroughly reviewed and received final
approval.  Subsequent review based on field inspections and additional
measurements may result in revisions to the data and datums.  Data users are
cautioned to consider the conditional nature of this information before using
it for critical decisions such as those that concern physical or public safety.
Only after meeting all standards for quality control assurance will the datums
be classified as Accepted Datums.

STATION NAME: CBBT, Chesapeake Channel (8638901)
****************************************************************************************************
    CD       T    TZ    PW     OW    WS   WD   WG    AT    WT    AP    SA    SG     RH    AG   VI
****************************************************************************************************
2018/10/15 17:48 EDT    1.40   1.80   11  233   15  79.0 -99.9 1017.1 -9.9 -9.999 -99.9 -99.99 -9.99
2018/10/15 17:54 EDT    1.35   1.73   10  232   14  78.8 -99.9 1017.2 -9.9 -9.999 -99.9 -99.99 -9.99
2018/10/15 18:00 EDT    1.30   1.67    9  229   12  78.4 -99.9 1017.2 -9.9 -9.999 -99.9 -99.99 -9.99
2018/10/15 18:06 EDT    1.25   1.64   12  227   15  78.4 -99.9 1017.2 -9.9 -9.999 -99.9 -99.99 -9.99
2018/10/15 18:12 EDT    1.21   1.59   12  225   16  78.3 -99.9 1017.2 -9.9 -9.999 -99.9 -99.99 -9.99
2018/10/15 18:18 EDT    1.17   1.56   12  223   17  78.4 -99.9 1017.1 -9.9 -9.999 -99.9 -99.99 -9.99
2018/10/15 18:24 EDT    1.12   1.50   13  222   17  78.4 -99.9 1017.0 -9.9 -9.999 -99.9 -99.99 -9.99
2018/10/15 18:30 EDT    1.08   1.48   12  224   17  78.1 -99.9 1017.1 -9.9 -9.999 -99.9 -99.99 -9.99
2018/10/15 18:36 EDT    1.05   1.46   13  223   16  78.1 -99.9 1017.1 -9.9 -9.999 -99.9 -99.99 -9.99
2018/10/15 18:42 EDT    1.01   1.41   11  225   16  77.9 -99.9 1017.1 -9.9 -9.999 -99.9 -99.99 -9.99
2018/10/15 18:48 EDT    0.98   1.38   11  223   15  77.9 -99.9 1017.3 -9.9 -9.999 -99.9 -99.99 -9.99
2018/10/15 18:54 EDT    0.95   1.34   11  225   15  77.7 -99.9 1017.3 -9.9 -9.999 -99.9 -99.99 -9.99
2018/10/15 19:00 EDT    0.92   1.34   11  225   15  77.5 -99.9 1017.2 -9.9 -9.999 -99.9 -99.99 -9.99
2018/10/15 19:06 EDT    0.89   1.34   12  224   15  77.7 -99.9 1017.2 -9.9 -9.999 -99.9 -99.99 -9.99
2018/10/15 19:12 EDT    0.86   1.29   13  223   16  77.7 -99.9 1017.1 -9.9 -9.999 -99.9 -99.99 -9.99
2018/10/15 19:18 EDT    0.84   1.25   12  225   15  77.5 -99.9 1017.1 -9.9 -9.999 -99.9 -99.99 -9.99
2018/10/15 19:24 EDT    0.82   1.20   12  224   15  77.4 -99.9 1017.0 -9.9 -9.999 -99.9 -99.99 -9.99
2018/10/15 19:30 EDT    0.80   1.19   11  225   14  77.2 -99.9 1017.1 -9.9 -9.999 -99.9 -99.99 -9.99
2018/10/15 19:36 EDT    0.79   1.18   11  225   15  77.2 -99.9 1017.1 -9.9 -9.999 -99.9 -99.99 -9.99
2018/10/15 19:42 EDT    0.77   1.15   11  219   14  77.2 -99.9 1017.0 -9.9 -9.999 -99.9 -99.99 -9.99
2018/10/15 19:48 EDT    0.76   1.14   11  222   13  77.0 -99.9 1017.0 -9.9 -9.999 -99.9 -99.99 -9.99
2018/10/15 19:54 EDT    0.75   1.13   10  220   13  76.8 -99.9 1017.1 -9.9 -9.999 -99.9 -99.99 -9.99
2018/10/15 20:00 EDT    0.74   1.12   12  219   15  76.8 -99.9 1017.1 -9.9 -9.999 -99.9 -99.99 -9.99
2018/10/15 20:06 EDT    0.74   1.09   12  218   16  76.8 -99.9 1017.1 -9.9 -9.999 -99.9 -99.99 -9.99
2018/10/15 20:12 EDT    0.74   1.10   11  215   14  76.6 -99.9 1017.1 -9.9 -9.999 -99.9 -99.99 -9.99
2018/10/15 20:18 EDT    0.74   1.05   14  213   17  76.6 -99.9 1017.0 -9.9 -9.999 -99.9 -99.99 -9.99
2018/10/15 20:24 EDT    0.74   1.08   14  215   18  76.6 -99.9 1016.9 -9.9 -9.999 -99.9 -99.99 -9.99
2018/10/15 20:30 EDT    0.75   1.07   15  215   19  76.5 -99.9 1016.9 -9.9 -9.999 -99.9 -99.99 -9.99
2018/10/15 20:36 EDT    0.75   1.09   13  218   18  76.5 -99.9 1016.9 -9.9 -9.999 -99.9 -99.99 -9.99
2018/10/15 20:42 EDT    0.76   1.09   13  221   17  76.3 -99.9 1016.9 -9.9 -9.999 -99.9 -99.99 -9.99
2018/10/15 20:48 EDT    0.78   1.10   14  222   18  76.1 -99.9 1017.0 -9.9 -9.999 -99.9 -99.99 -9.99
2018/10/15 20:54 EDT    0.79   1.12   13  222   17  76.1 -99.9 1017.0 -9.9 -9.999 -99.9 -99.99 -9.99
2018/10/15 21:00 EDT    0.81   1.14   13  224   17  75.9 -99.9 1017.1 -9.9 -9.999 -99.9 -99.99 -9.99
2018/10/15 21:06 EDT    0.83   1.13   12  224   16  75.9 -99.9 1017.1 -9.9 -9.999 -99.9 -99.99 -9.99
2018/10/15 21:12 EDT    0.85   1.12   12  226   15  75.7 -99.9 1017.3 -9.9 -9.999 -99.9 -99.99 -9.99
2018/10/15 21:18 EDT    0.87   1.11   11  227   15  75.7 -99.9 1017.4 -9.9 -9.999 -99.9 -99.99 -9.99
2018/10/15 21:24 EDT    0.90   1.10   11  229   14  75.7 -99.9 1017.5 -9.9 -9.999 -99.9 -99.99 -9.99
2018/10/15 21:30 EDT    0.93   1.15   11  226   15  75.6 -99.9 1017.5 -9.9 -9.999 -99.9 -99.99 -9.99
2018/10/15 21:36 EDT    0.96   1.18   13  226   16  75.6 -99.9 1017.5 -9.9 -9.999 -99.9 -99.99 -9.99
2018/10/15 21:42 EDT    0.99   1.19   13  226   17  75.6 -99.9 1017.5 -9.9 -9.999 -99.9 -99.99 -9.99
2018/10/15 21:48 EDT    1.02   1.20   13  229   17  75.4 -99.9 1017.5 -9.9 -9.999 -99.9 -99.99 -9.99
2018/10/15 21:54 EDT    1.06   1.23   13  224   17  75.2 -99.9 1017.4 -9.9 -9.999 -99.9 -99.99 -9.99
2018/10/15 22:00 EDT    1.10   1.26   13  225   16  75.2 -99.9 1017.5 -9.9 -9.999 -99.9 -99.99 -9.99
2018/10/15 22:06 EDT    1.13   1.28   13  225   17  75.2 -99.9 1017.5 -9.9 -9.999 -99.9 -99.99 -9.99
2018/10/15 22:12 EDT    1.17   1.29   15  223   17  75.2 -99.9 1017.4 -9.9 -9.999 -99.9 -99.99 -9.99
2018/10/15 22:18 EDT    1.22   1.39   14  224   19  75.0 -99.9 1017.4 -9.9 -9.999 -99.9 -99.99 -9.99
2018/10/15 22:24 EDT    1.26   1.41   14  224   19  75.0 -99.9 1017.4 -9.9 -9.999 -99.9 -99.99 -9.99
2018/10/15 22:30 EDT    1.30   1.46   13  226   19  74.8 -99.9 1017.5 -9.9 -9.999 -99.9 -99.99 -9.99
2018/10/15 22:36 EDT    1.35   1.49   13  226   17  74.8 -99.9 1017.5 -9.9 -9.999 -99.9 -99.99 -9.99
2018/10/15 22:42 EDT    1.39   1.51   13  227   17  74.8 -99.9 1017.5 -9.9 -9.999 -99.9 -99.99 -9.99
2018/10/15 22:48 EDT    1.44   1.54   14  228   18  74.8 -99.9 1017.5 -9.9 -9.999 -99.9 -99.99 -9.99
2018/10/15 22:54 EDT    1.48   1.62   13  228   16  74.7 -99.9 1017.5 -9.9 -9.999 -99.9 -99.99 -9.99
2018/10/15 23:00 EDT    1.53   1.63   14  228   17  74.7 -99.9 1017.5 -9.9 -9.999 -99.9 -99.99 -9.99
2018/10/15 23:06 EDT    1.57   1.72   14  225   16  74.5 -99.9 1017.4 -9.9 -9.999 -99.9 -99.99 -9.99
2018/10/15 23:12 EDT    1.62   1.80   13  227   17  74.5 -99.9 1017.3 -9.9 -9.999 -99.9 -99.99 -9.99
2018/10/15 23:18 EDT    1.67   1.84   13  226   18  74.5 -99.9 1017.4 -9.9 -9.999 -99.9 -99.99 -9.99
2018/10/15 23:24 EDT    1.71   1.87   14  226   17  74.5 -99.9 1017.4 -9.9 -9.999 -99.9 -99.99 -9.99
2018/10/15 23:30 EDT    1.76   1.90   13  225   17  74.3 -99.9 1017.3 -9.9 -9.999 -99.9 -99.99 -9.99
2018/10/15 23:36 EDT    1.80   1.92   15  224   19  74.3 -99.9 1017.2 -9.9 -9.999 -99.9 -99.99 -9.99
2018/10/15 23:42 EDT    1.85   1.97   15  224   18  74.3 -99.9 1017.1 -9.9 -9.999 -99.9 -99.99 -9.99
2018/10/15 23:48 EDT    1.89   2.02   13  223   19  74.3 -99.9 1017.0 -9.9 -9.999 -99.9 -99.99 -9.99
2018/10/15 23:54 EDT    1.94   2.08   12  221   17  74.3 -99.9 1016.9 -9.9 -9.999 -99.9 -99.99 -9.99
2018/10/16 00:00 EDT    1.98   2.13   13  222   16  74.3 -99.9 1016.8 -9.9 -9.999 -99.9 -99.99 -9.99
2018/10/16 00:06 EDT    2.02   2.20   15  223   23  74.5 -99.9 1016.8 -9.9 -9.999 -99.9 -99.99 -9.99
2018/10/16 00:12 EDT    2.06   2.24   13  227   17  74.5 -99.9 1016.9 -9.9 -9.999 -99.9 -99.99 -9.99
2018/10/16 00:18 EDT    2.09   2.30   13  225   17  74.5 -99.9 1016.8 -9.9 -9.999 -99.9 -99.99 -9.99
2018/10/16 00:24 EDT    2.13   2.27   14  225   19  74.5 -99.9 1016.8 -9.9 -9.999 -99.9 -99.99 -9.99
2018/10/16 00:30 EDT    2.16   2.30   13  226   17  74.3 -99.9 1016.8 -9.9 -9.999 -99.9 -99.99 -9.99
2018/10/16 00:36 EDT    2.20   2.34   12  222   17  74.3 -99.9 1016.7 -9.9 -9.999 -99.9 -99.99 -9.99
2018/10/16 00:42 EDT    2.23   2.35   14  222   17  74.3 -99.9 1016.6 -9.9 -9.999 -99.9 -99.99 -9.99
2018/10/16 00:48 EDT    2.25   2.40   14  221   18  74.3 -99.9 1016.5 -9.9 -9.999 -99.9 -99.99 -9.99
2018/10/16 00:54 EDT    2.28   2.43   14  222   17  74.3 -99.9 1016.4 -9.9 -9.999 -99.9 -99.99 -9.99
2018/10/16 01:00 EDT    2.30   2.48   13  224   17  74.3 -99.9 1016.4 -9.9 -9.999 -99.9 -99.99 -9.99
2018/10/16 01:06 EDT    2.33   2.46   15  224   19  74.5 -99.9 1016.4 -9.9 -9.999 -99.9 -99.99 -9.99
2018/10/16 01:12 EDT    2.35   2.49   15  223   19  74.5 -99.9 1016.4 -9.9 -9.999 -99.9 -99.99 -9.99
2018/10/16 01:18 EDT    2.36   2.50   14  225   19  74.5 -99.9 1016.4 -9.9 -9.999 -99.9 -99.99 -9.99
2018/10/16 01:24 EDT    2.38   2.48   15  224   18  74.5 -99.9 1016.3 -9.9 -9.999 -99.9 -99.99 -9.99
2018/10/16 01:30 EDT    2.39   2.52   17  223   22  74.5 -99.9 1016.3 -9.9 -9.999 -99.9 -99.99 -9.99
2018/10/16 01:36 EDT    2.40   2.52   17  224   22  74.5 -99.9 1016.3 -9.9 -9.999 -99.9 -99.99 -9.99
2018/10/16 01:42 EDT    2.41   2.51   17  222   20  74.5 -99.9 1016.3 -9.9 -9.999 -99.9 -99.99 -9.99
2018/10/16 01:48 EDT    2.42   2.52   17  224   21  74.5 -99.9 1016.2 -9.9 -9.999 -99.9 -99.99 -9.99
2018/10/16 01:54 EDT    2.42   2.52   17  223   22  74.5 -99.9 1016.2 -9.9 -9.999 -99.9 -99.99 -9.99
2018/10/16 02:00 EDT    2.43   2.49   16  224   20  74.7 -99.9 1016.1 -9.9 -9.999 -99.9 -99.99 -9.99
2018/10/16 02:06 EDT    2.43   2.50   18  224   23  74.5 -99.9 1016.1 -9.9 -9.999 -99.9 -99.99 -9.99
2018/10/16 02:12 EDT    2.43   2.47   16  223   21  74.5 -99.9 1016.1 -9.9 -9.999 -99.9 -99.99 -9.99
2018/10/16 02:18 EDT    2.42   2.49   15  226   20  74.5 -99.9 1016.3 -9.9 -9.999 -99.9 -99.99 -9.99
2018/10/16 02:24 EDT    2.42   2.46   17  224   21  74.3 -99.9 1016.3 -9.9 -9.999 -99.9 -99.99 -9.99
2018/10/16 02:30 EDT    2.41   2.41   15  229   19  74.3 -99.9 1016.3 -9.9 -9.999 -99.9 -99.99 -9.99
2018/10/16 02:36 EDT    2.41   2.41   14  232   19  74.3 -99.9 1016.4 -9.9 -9.999 -99.9 -99.99 -9.99
2018/10/16 02:42 EDT    2.40   2.39   12  234   17  74.3 -99.9 1016.3 -9.9 -9.999 -99.9 -99.99 -9.99
2018/10/16 02:48 EDT    2.39   2.39   12  233   17  74.3 -99.9 1016.3 -9.9 -9.999 -99.9 -99.99 -9.99
2018/10/16 02:54 EDT    2.38   2.35   14  237   18  74.3 -99.9 1016.2 -9.9 -9.999 -99.9 -99.99 -9.99
2018/10/16 03:00 EDT    2.36   2.31   11  237   19  74.3 -99.9 1016.2 -9.9 -9.999 -99.9 -99.99 -9.99
2018/10/16 03:06 EDT    2.35   2.31   13  239   17  74.1 -99.9 1016.3 -9.9 -9.999 -99.9 -99.99 -9.99
2018/10/16 03:12 EDT    2.33   2.27   14  240   18  74.1 -99.9 1016.2 -9.9 -9.999 -99.9 -99.99 -9.99
2018/10/16 03:18 EDT    2.32   2.26   11  236   18  73.9 -99.9 1016.1 -9.9 -9.999 -99.9 -99.99 -9.99
2018/10/16 03:24 EDT    2.30   2.25   11  237   17  73.9 -99.9 1016.2 -9.9 -9.999 -99.9 -99.99 -9.99
2018/10/16 03:30 EDT    2.28   2.21   11  238   17  73.8 -99.9 1016.2 -9.9 -9.999 -99.9 -99.99 -9.99
2018/10/16 03:36 EDT    2.25   2.17   14  243   18  73.8 -99.9 1016.1 -9.9 -9.999 -99.9 -99.99 -9.99
2018/10/16 03:42 EDT    2.23   2.15   11  238   17  73.9 -99.9 1016.2 -9.9 -9.999 -99.9 -99.99 -9.99
2018/10/16 03:48 EDT    2.21   2.14   15  243   18  73.8 -99.9 1016.2 -9.9 -9.999 -99.9 -99.99 -9.99
2018/10/16 03:54 EDT    2.18   2.13   17  246   18  73.8 -99.9 1016.3 -9.9 -9.999 -99.9 -99.99 -9.99
2018/10/16 04:00 EDT    2.15   2.11   15  244   20  73.8 -99.9 1016.2 -9.9 -9.999 -99.9 -99.99 -9.99
2018/10/16 04:06 EDT    2.12   2.05   14  240   18  73.6 -99.9 1016.2 -9.9 -9.999 -99.9 -99.99 -9.99
2018/10/16 04:12 EDT    2.09   2.03   12  238   18  73.6 -99.9 1016.2 -9.9 -9.999 -99.9 -99.99 -9.99
2018/10/16 04:18 EDT    2.06   2.08   13  238   17  73.4 -99.9 1016.1 -9.9 -9.999 -99.9 -99.99 -9.99
2018/10/16 04:24 EDT    2.02   2.05   13  241   18  73.4 -99.9 1016.2 -9.9 -9.999 -99.9 -99.99 -9.99
2018/10/16 04:30 EDT    1.98   2.02   16  252   18  73.4 -99.9 1016.4 -9.9 -9.999 -99.9 -99.99 -9.99
2018/10/16 04:36 EDT    1.95   1.98   15  267   19  73.6 -99.9 1016.6 -9.9 -9.999 -99.9 -99.99 -9.99
2018/10/16 04:42 EDT    1.91   1.99   16  271   19  73.6 -99.9 1016.7 -9.9 -9.999 -99.9 -99.99 -9.99
2018/10/16 04:48 EDT    1.87   1.94   15  278   17  73.4 -99.9 1016.7 -9.9 -9.999 -99.9 -99.99 -9.99
2018/10/16 04:54 EDT    1.83   1.88   15  282   19  73.4 -99.9 1016.8 -9.9 -9.999 -99.9 -99.99 -9.99
2018/10/16 05:00 EDT    1.79   1.82   17  282   18  73.2 -99.9 1016.9 -9.9 -9.999 -99.9 -99.99 -9.99
2018/10/16 05:06 EDT    1.74   1.83   16  297   19  73.4 -99.9 1016.9 -9.9 -9.999 -99.9 -99.99 -9.99
2018/10/16 05:12 EDT    1.70   1.81   16  296   20  73.0 -99.9 1016.9 -9.9 -9.999 -99.9 -99.99 -9.99
2018/10/16 05:18 EDT    1.65   1.76   13  289   16  73.2 -99.9 1016.9 -9.9 -9.999 -99.9 -99.99 -9.99
2018/10/16 05:24 EDT    1.61   1.78   13  280   17  73.0 -99.9 1017.0 -9.9 -9.999 -99.9 -99.99 -9.99
2018/10/16 05:30 EDT    1.57   1.69   14  283   15  73.0 -99.9 1017.1 -9.9 -9.999 -99.9 -99.99 -9.99
2018/10/16 05:36 EDT    1.52   1.72   12  282   14  73.0 -99.9 1017.3 -9.9 -9.999 -99.9 -99.99 -9.99
2018/10/16 05:42 EDT    1.48   1.76   14  292   15  73.0 -99.9 1017.4 -9.9 -9.999 -99.9 -99.99 -9.99
2018/10/16 05:48 EDT    1.43   1.80   17  355   20  70.2 -99.9 1017.8 -9.9 -9.999 -99.9 -99.99 -9.99
2018/10/16 05:54 EDT    1.39   1.82   24   21   28  69.3 -99.9 1017.6 -9.9 -9.999 -99.9 -99.99 -9.99
2018/10/16 06:00 EDT    1.35   1.74   25   21   31  69.1 -99.9 1017.6 -9.9 -9.999 -99.9 -99.99 -9.99
2018/10/16 06:06 EDT    1.31   1.70   23   22   29  68.7 -99.9 1017.6 -9.9 -9.999 -99.9 -99.99 -9.99
2018/10/16 06:12 EDT    1.27   1.67   25   23   29  68.5 -99.9 1017.8 -9.9 -9.999 -99.9 -99.99 -9.99
2018/10/16 06:18 EDT    1.23   1.72   27   28   29  68.2 -99.9 1017.8 -9.9 -9.999 -99.9 -99.99 -9.99
2018/10/16 06:24 EDT    1.19   1.81   24   21   29  68.0 -99.9 1018.0 -9.9 -9.999 -99.9 -99.99 -9.99
2018/10/16 06:30 EDT    1.15   1.80   26   23   28  67.8 -99.9 1018.1 -9.9 -9.999 -99.9 -99.99 -9.99
2018/10/16 06:36 EDT    1.12   1.76   23   22   28  67.8 -99.9 1018.1 -9.9 -9.999 -99.9 -99.99 -9.99
2018/10/16 06:42 EDT    1.08   1.77   25   19   28  67.3 -99.9 1018.2 -9.9 -9.999 -99.9 -99.99 -9.99
2018/10/16 06:48 EDT    1.05   1.79   24   16   27  67.6 -99.9 1018.3 -9.9 -9.999 -99.9 -99.99 -9.99
2018/10/16 06:54 EDT    1.02   1.78   26   25   29  67.6 -99.9 1018.1 -9.9 -9.999 -99.9 -99.99 -9.99
2018/10/16 07:00 EDT    0.99   1.84   23   30   26  67.6 -99.9 1018.2 -9.9 -9.999 -99.9 -99.99 -9.99
2018/10/16 07:06 EDT    0.96   1.66   21   23   26  67.5 -99.9 1018.1 -9.9 -9.999 -99.9 -99.99 -9.99
2018/10/16 07:12 EDT    0.94   1.80   23   30   25  67.5 -99.9 1018.1 -9.9 -9.999 -99.9 -99.99 -9.99
2018/10/16 07:18 EDT    0.92   1.55   22   26   24  67.6 -99.9 1018.5 -9.9 -9.999 -99.9 -99.99 -9.99
2018/10/16 07:24 EDT    0.90   1.56   20   23   24  67.5 -99.9 1018.6 -9.9 -9.999 -99.9 -99.99 -9.99
2018/10/16 07:30 EDT    0.88   1.51   22   22   25  67.3 -99.9 1018.8 -9.9 -9.999 -99.9 -99.99 -9.99
2018/10/16 07:36 EDT    0.86   1.54   22   24   24  66.9 -99.9 1019.0 -9.9 -9.999 -99.9 -99.99 -9.99
2018/10/16 07:42 EDT    0.85   1.52   22   22   25  67.3 -99.9 1019.1 -9.9 -9.999 -99.9 -99.99 -9.99
2018/10/16 07:48 EDT    0.84   1.41   21   12   24  67.6 -99.9 1019.4 -9.9 -9.999 -99.9 -99.99 -9.99
2018/10/16 07:54 EDT    0.82   1.39   22    8   25  67.5 -99.9 1019.4 -9.9 -9.999 -99.9 -99.99 -9.99
2018/10/16 08:00 EDT    0.82   1.46   22   12   25  67.5 -99.9 1019.5 -9.9 -9.999 -99.9 -99.99 -9.99
2018/10/16 08:06 EDT    0.81   1.22   22   15   24  67.5 -99.9 1019.5 -9.9 -9.999 -99.9 -99.99 -9.99
2018/10/16 08:12 EDT    0.81   1.32   19   19   25  67.6 -99.9 1019.7 -9.9 -9.999 -99.9 -99.99 -9.99
2018/10/16 08:18 EDT    0.81   1.34   20   29   23  67.3 -99.9 1019.9 -9.9 -9.999 -99.9 -99.99 -9.99
2018/10/16 08:24 EDT    0.81   1.18   20   25   23  67.1 -99.9 1019.8 -9.9 -9.999 -99.9 -99.99 -9.99
2018/10/16 08:30 EDT    0.81   1.20   18   29   23  66.9 -99.9 1020.0 -9.9 -9.999 -99.9 -99.99 -9.99
2018/10/16 08:36 EDT    0.82   1.15   18   33   21  66.6 -99.9 1020.1 -9.9 -9.999 -99.9 -99.99 -9.99
2018/10/16 08:42 EDT    0.82   1.07   17   27   21  66.4 -99.9 1020.4 -9.9 -9.999 -99.9 -99.99 -9.99
2018/10/16 08:48 EDT    0.84   1.12   17   26   20  66.7 -99.9 1020.4 -9.9 -9.999 -99.9 -99.99 -9.99
2018/10/16 08:54 EDT    0.85   1.17 -999 -999 -999 -99.9 -99.9 -999.9 -9.9 -9.999 -99.9 -99.99 -9.99
2018/10/16 09:00 EDT    0.86   1.14   17   28   21  66.2 -99.9 1020.5 -9.9 -9.999 -99.9 -99.99 -9.99
2018/10/16 09:06 EDT    0.88   1.10   16   28   21  66.6 -99.9 1020.7 -9.9 -9.999 -99.9 -99.99 -9.99
2018/10/16 09:12 EDT    0.90   1.16   14   39   18  66.2 -99.9 1020.9 -9.9 -9.999 -99.9 -99.99 -9.99
2018/10/16 09:18 EDT    0.92   1.14   17   43   18  65.8 -99.9 1021.0 -9.9 -9.999 -99.9 -99.99 -9.99
2018/10/16 09:24 EDT    0.95   1.18   15   36   18  65.8 -99.9 1021.0 -9.9 -9.999 -99.9 -99.99 -9.99
2018/10/16 09:30 EDT    0.97   1.23   15   46   17  65.7 -99.9 1021.2 -9.9 -9.999 -99.9 -99.99 -9.99
2018/10/16 09:36 EDT    1.00   1.28   14   51   18  65.7 -99.9 1021.4 -9.9 -9.999 -99.9 -99.99 -9.99
2018/10/16 09:42 EDT    1.03   1.35   14   51   18  65.5 -99.9 1021.4 -9.9 -9.999 -99.9 -99.99 -9.99
2018/10/16 09:48 EDT    1.07   1.38   15   51   19  65.3 -99.9 1021.3 -9.9 -9.999 -99.9 -99.99 -9.99
2018/10/16 09:54 EDT    1.10   1.48   15   43   19  65.1 -99.9 1021.3 -9.9 -9.999 -99.9 -99.99 -9.99
2018/10/16 10:00 EDT    1.14   1.52   16   43   20  64.9 -99.9 1021.3 -9.9 -9.999 -99.9 -99.99 -9.99
2018/10/16 10:06 EDT    1.17   1.63   16   45   19  65.1 -99.9 1021.3 -9.9 -9.999 -99.9 -99.99 -9.99
2018/10/16 10:12 EDT    1.21   1.64   15   43   18  64.9 -99.9 1021.4 -9.9 -9.999 -99.9 -99.99 -9.99
2018/10/16 10:18 EDT    1.26   1.69   18   26   21  64.6 -99.9 1021.4 -9.9 -9.999 -99.9 -99.99 -9.99
2018/10/16 10:24 EDT    1.30   1.75   17   30   21  64.4 -99.9 1021.5 -9.9 -9.999 -99.9 -99.99 -9.99
2018/10/16 10:30 EDT    1.34   1.84   18   28   21  64.2 -99.9 1021.3 -9.9 -9.999 -99.9 -99.99 -9.99
2018/10/16 10:36 EDT    1.39   1.93   18   26   20  64.2 -99.9 1021.3 -9.9 -9.999 -99.9 -99.99 -9.99
2018/10/16 10:42 EDT    1.43   1.98   18   30   21  63.9 -99.9 1021.4 -9.9 -9.999 -99.9 -99.99 -9.99
2018/10/16 10:48 EDT    1.48   2.05   17   45   22  63.7 -99.9 1021.3 -9.9 -9.999 -99.9 -99.99 -9.99
2018/10/16 10:54 EDT    1.53   2.06   19   18   23  63.1 -99.9 1021.3 -9.9 -9.999 -99.9 -99.99 -9.99
2018/10/16 11:00 EDT    1.58   2.08   17   27   22  63.1 -99.9 1021.3 -9.9 -9.999 -99.9 -99.99 -9.99
2018/10/16 11:06 EDT    1.63   2.16   17   23   19  62.8 -99.9 1021.6 -9.9 -9.999 -99.9 -99.99 -9.99
2018/10/16 11:12 EDT    1.68   2.23   15   24   19  62.6 -99.9 1021.5 -9.9 -9.999 -99.9 -99.99 -9.99
2018/10/16 11:18 EDT    1.73   2.26   12   25   15  63.0 -99.9 1021.4 -9.9 -9.999 -99.9 -99.99 -9.99
2018/10/16 11:24 EDT    1.78   2.26   12   34   15  63.0 -99.9 1021.3 -9.9 -9.999 -99.9 -99.99 -9.99
2018/10/16 11:30 EDT    1.83   2.41   13   37   15  62.8 -99.9 1021.5 -9.9 -9.999 -99.9 -99.99 -9.99
2018/10/16 11:36 EDT    1.88   2.39   13   33   16  63.0 -99.9 1021.5 -9.9 -9.999 -99.9 -99.99 -9.99
2018/10/16 11:42 EDT    1.93   2.46   12   40   14  62.6 -99.9 1021.5 -9.9 -9.999 -99.9 -99.99 -9.99
2018/10/16 11:48 EDT    1.98   2.53   13   27   15  62.6 -99.9 1021.5 -9.9 -9.999 -99.9 -99.99 -9.99
2018/10/16 11:54 EDT    2.03   2.61   12   31   15  62.2 -99.9 1021.6 -9.9 -9.999 -99.9 -99.99 -9.99
2018/10/16 12:00 EDT    2.07   2.64   10   26   13  62.2 -99.9 1021.6 -9.9 -9.999 -99.9 -99.99 -9.99
2018/10/16 12:06 EDT    2.12   2.69   12   42   14  62.2 -99.9 1021.5 -9.9 -9.999 -99.9 -99.99 -9.99
2018/10/16 12:12 EDT    2.17   2.71   11   34   13  61.9 -99.9 1021.5 -9.9 -9.999 -99.9 -99.99 -9.99
2018/10/16 12:18 EDT    2.21   2.80   11   40   13  61.7 -99.9 1021.4 -9.9 -9.999 -99.9 -99.99 -9.99
2018/10/16 12:24 EDT    2.26   2.78   11   44   13  61.7 -99.9 1021.3 -9.9 -9.999 -99.9 -99.99 -9.99
2018/10/16 12:30 EDT    2.30   2.83   12   32   14  61.3 -99.9 1021.4 -9.9 -9.999 -99.9 -99.99 -9.99
2018/10/16 12:36 EDT    2.34   2.85   13   37   16  61.2 -99.9 1021.3 -9.9 -9.999 -99.9 -99.99 -9.99
2018/10/16 12:42 EDT    2.38   2.88   11   38   15  60.4 -99.9 1021.5 -9.9 -9.999 -99.9 -99.99 -9.99
2018/10/16 12:48 EDT    2.42   2.89   11   30   16  59.9 -99.9 1021.4 -9.9 -9.999 -99.9 -99.99 -9.99
2018/10/16 12:54 EDT    2.46   2.94   11   47   14  59.9 -99.9 1021.3 -9.9 -9.999 -99.9 -99.99 -9.99
2018/10/16 13:00 EDT    2.49   2.96    9   41   14  59.9 -99.9 1021.0 -9.9 -9.999 -99.9 -99.99 -9.99
2018/10/16 13:06 EDT    2.53   2.93    8   46   13  60.1 -99.9 1020.9 -9.9 -9.999 -99.9 -99.99 -9.99
2018/10/16 13:12 EDT    2.56   2.95    8   47   11  60.1 -99.9 1020.8 -9.9 -9.999 -99.9 -99.99 -9.99
2018/10/16 13:18 EDT    2.59   3.02    9   43   11  60.1 -99.9 1020.7 -9.9 -9.999 -99.9 -99.99 -9.99
2018/10/16 13:24 EDT    2.61   2.95    7   52   10  60.1 -99.9 1020.6 -9.9 -9.999 -99.9 -99.99 -9.99
2018/10/16 13:30 EDT    2.64   3.00    8   41   10  60.1 -99.9 1020.5 -9.9 -9.999 -99.9 -99.99 -9.99
2018/10/16 13:36 EDT    2.66   3.04    7   47   11  60.3 -99.9 1020.3 -9.9 -9.999 -99.9 -99.99 -9.99
2018/10/16 13:42 EDT    2.68   3.04    9   38   11  60.4 -99.9 1020.4 -9.9 -9.999 -99.9 -99.99 -9.99
2018/10/16 13:48 EDT    2.70   3.05    8   51   10  61.2 -99.9 1020.2 -9.9 -9.999 -99.9 -99.99 -9.99
2018/10/16 13:54 EDT    2.71   3.05    9   49   11  60.8 -99.9 1020.0 -9.9 -9.999 -99.9 -99.99 -9.99
2018/10/16 14:00 EDT    2.73   3.07    9   67   11  60.8 -99.9 1019.9 -9.9 -9.999 -99.9 -99.99 -9.99
2018/10/16 14:06 EDT    2.74   3.09    9   54   11  60.8 -99.9 1019.8 -9.9 -9.999 -99.9 -99.99 -9.99
2018/10/16 14:12 EDT    2.75   3.16   10   43   11  60.4 -99.9 1019.8 -9.9 -9.999 -99.9 -99.99 -9.99
2018/10/16 14:18 EDT    2.75   3.18    9   56   12  60.4 -99.9 1019.5 -9.9 -9.999 -99.9 -99.99 -9.99
2018/10/16 14:24 EDT    2.76   3.24   10   68   12  60.4 -99.9 1019.6 -9.9 -9.999 -99.9 -99.99 -9.99
2018/10/16 14:30 EDT    2.76   3.24   10   54   12  60.8 -99.9 1019.5 -9.9 -9.999 -99.9 -99.99 -9.99
2018/10/16 14:36 EDT    2.76   3.26    9   45   10  61.2 -99.9 1019.6 -9.9 -9.999 -99.9 -99.99 -9.99
2018/10/16 14:42 EDT    2.76   3.27    6   48   11  61.2 -99.9 1019.6 -9.9 -9.999 -99.9 -99.99 -9.99
2018/10/16 14:48 EDT    2.76   3.27    7   38   10  61.2 -99.9 1019.5 -9.9 -9.999 -99.9 -99.99 -9.99
2018/10/16 14:54 EDT    2.75   3.26    7   54   10  61.2 -99.9 1019.3 -9.9 -9.999 -99.9 -99.99 -9.99
2018/10/16 15:00 EDT    2.75   3.23    7   56    8  61.5 -99.9 1019.5 -9.9 -9.999 -99.9 -99.99 -9.99
2018/10/16 15:06 EDT    2.74   3.26    6   60    9  61.9 -99.9 1019.5 -9.9 -9.999 -99.9 -99.99 -9.99
2018/10/16 15:12 EDT    2.73   3.28    7   40    8  61.7 -99.9 1019.6 -9.9 -9.999 -99.9 -99.99 -9.99
2018/10/16 15:18 EDT    2.72   3.23    7   52    9  61.5 -99.9 1019.6 -9.9 -9.999 -99.9 -99.99 -9.99
2018/10/16 15:24 EDT    2.70   3.24    8   61    9  61.7 -99.9 1019.5 -9.9 -9.999 -99.9 -99.99 -9.99
2018/10/16 15:30 EDT    2.69   3.18    7   53    9  61.5 -99.9 1019.3 -9.9 -9.999 -99.9 -99.99 -9.99
2018/10/16 15:36 EDT    2.67   3.18    6   17   10  61.7 -99.9 1019.4 -9.9 -9.999 -99.9 -99.99 -9.99
2018/10/16 15:42 EDT    2.65   3.15    7   62   10  61.7 -99.9 1019.4 -9.9 -9.999 -99.9 -99.99 -9.99
2018/10/16 15:48 EDT    2.63   3.14    7   59    9  61.5 -99.9 1019.6 -9.9 -9.999 -99.9 -99.99 -9.99
2018/10/16 15:54 EDT    2.61   3.10    6   62    9  61.5 -99.9 1019.4 -9.9 -9.999 -99.9 -99.99 -9.99
2018/10/16 16:00 EDT    2.59   3.11    4   34   10  61.5 -99.9 1019.6 -9.9 -9.999 -99.9 -99.99 -9.99
2018/10/16 16:06 EDT    2.56   3.10    7   52   11  61.7 -99.9 1019.5 -9.9 -9.999 -99.9 -99.99 -9.99
2018/10/16 16:12 EDT    2.54   3.13    5   62   11  61.7 -99.9 1019.4 -9.9 -9.999 -99.9 -99.99 -9.99
2018/10/16 16:18 EDT    2.51   3.14    5   61    8  61.7 -99.9 1019.4 -9.9 -9.999 -99.9 -99.99 -9.99
2018/10/16 16:24 EDT    2.48   3.11    7   45    9  61.9 -99.9 1019.3 -9.9 -9.999 -99.9 -99.99 -9.99
2018/10/16 16:30 EDT    2.45   3.11    5   51    7  61.9 -99.9 1019.4 -9.9 -9.999 -99.9 -99.99 -9.99
2018/10/16 16:36 EDT    2.41   3.05    4   65    7  61.9 -99.9 1019.3 -9.9 -9.999 -99.9 -99.99 -9.99
2018/10/16 16:42 EDT    2.38   3.01    6   59    8  62.2 -99.9 1019.3 -9.9 -9.999 -99.9 -99.99 -9.99
2018/10/16 16:48 EDT    2.34   3.00    5   43    8  62.2 -99.9 1019.5 -9.9 -9.999 -99.9 -99.99 -9.99
2018/10/16 16:54 EDT    2.30   3.00    5   75    7  62.2 -99.9 1019.4 -9.9 -9.999 -99.9 -99.99 -9.99
2018/10/16 17:00 EDT    2.26   2.94    3   85    9  62.6 -99.9 1019.3 -9.9 -9.999 -99.9 -99.99 -9.99
2018/10/16 17:06 EDT    2.22   2.89    5   96    9  62.8 -99.9 1019.3 -9.9 -9.999 -99.9 -99.99 -9.99
2018/10/16 17:12 EDT    2.17   2.86    6   68    8  62.6 -99.9 1019.1 -9.9 -9.999 -99.9 -99.99 -9.99
2018/10/16 17:18 EDT    2.13   2.77    4   99    7  62.8 -99.9 1019.2 -9.9 -9.999 -99.9 -99.99 -9.99
2018/10/16 17:24 EDT    2.08   2.74    4   97    6  62.8 -99.9 1019.1 -9.9 -9.999 -99.9 -99.99 -9.99
2018/10/16 17:30 EDT    2.03   2.64    3   93    7  63.0 -99.9 1019.3 -9.9 -9.999 -99.9 -99.99 -9.99
2018/10/16 17:36 EDT    1.99   2.55    5   92    7  62.8 -99.9 1019.4 -9.9 -9.999 -99.9 -99.99 -9.99
2018/10/16 17:42 EDT    1.94   2.52    4   52    8  62.4 -99.9 1019.5 -9.9 -9.999 -99.9 -99.99 -9.99
2018/10/16 17:48 EDT    1.89   2.48    4   74    7  62.6 -99.9 1019.6 -9.9 -9.999 -99.9 -99.99 -9.99
2018/10/16 17:54 EDT    1.84   2.43    4   84    6  62.6 -99.9 1019.5 -9.9 -9.999 -99.9 -99.99 -9.99
2018/10/16 18:00 EDT    1.79   2.35    4   71    6  62.8 -99.9 1019.7 -9.9 -9.999 -99.9 -99.99 -9.99
2018/10/16 18:06 EDT    1.74   2.31    4   69    8  62.6 -99.9 1019.8 -9.9 -9.999 -99.9 -99.99 -9.99
2018/10/16 18:12 EDT    1.69   2.24    5   78    7  62.8 -99.9 1019.9 -9.9 -9.999 -99.9 -99.99 -9.99
2018/10/16 18:18 EDT    1.64   2.17    6   83    7  62.8 -99.9 1019.8 -9.9 -9.999 -99.9 -99.99 -9.99
2018/10/16 18:24 EDT    1.59   2.15    4   79    6  62.8 -99.9 1019.7 -9.9 -9.999 -99.9 -99.99 -9.99
2018/10/16 18:30 EDT    1.54   2.10    5   63    7  63.0 -99.9 1019.6 -9.9 -9.999 -99.9 -99.99 -9.99
2018/10/16 18:36 EDT    1.49   2.04    6   70    8  62.8 -99.9 1019.6 -9.9 -9.999 -99.9 -99.99 -9.99
2018/10/16 18:42 EDT    1.44   1.97    5   79    9  63.0 -99.9 1019.5 -9.9 -9.999 -99.9 -99.99 -9.99
2018/10/16 18:48 EDT    1.39   1.96    5  113    9  63.0 -99.9 1019.3 -9.9 -9.999 -99.9 -99.99 -9.99
2018/10/16 18:54 EDT    1.35   1.94    6  120    8  62.8 -99.9 1019.3 -9.9 -9.999 -99.9 -99.99 -9.99
2018/10/16 19:00 EDT    1.30   1.83    4  112    7  62.8 -99.9 1019.5 -9.9 -9.999 -99.9 -99.99 -9.99
2018/10/16 19:06 EDT    1.26   1.80    2  102    5  63.0 -99.9 1019.3 -9.9 -9.999 -99.9 -99.99 -9.99
2018/10/16 19:12 EDT    1.22   1.79    5  111    7  63.0 -99.9 1019.3 -9.9 -9.999 -99.9 -99.99 -9.99
2018/10/16 19:18 EDT    1.18   1.75    4  149    6  62.8 -99.9 1019.3 -9.9 -9.999 -99.9 -99.99 -9.99
2018/10/16 19:24 EDT    1.14   1.69    5   93    6  63.0 -99.9 1019.1 -9.9 -9.999 -99.9 -99.99 -9.99
2018/10/16 19:30 EDT    1.11   1.66    5  110    6  63.1 -99.9 1019.0 -9.9 -9.999 -99.9 -99.99 -9.99
2018/10/16 19:36 EDT    1.07   1.59    5   99    7  63.1 -99.9 1019.0 -9.9 -9.999 -99.9 -99.99 -9.99
2018/10/16 19:42 EDT    1.04   1.53    4   77    7  63.1 -99.9 1019.3 -9.9 -9.999 -99.9 -99.99 -9.99
2018/10/16 19:48 EDT    1.01   1.50    4  100    7  63.3 -99.9 1019.0 -9.9 -9.999 -99.9 -99.99 -9.99
2018/10/16 19:54 EDT    0.98   1.48    4   93    7  63.7 -99.9 1019.3 -9.9 -9.999 -99.9 -99.99 -9.99
2018/10/16 20:00 EDT    0.95   1.45    7  105    9  63.7 -99.9 1019.3 -9.9 -9.999 -99.9 -99.99 -9.99
2018/10/16 20:06 EDT    0.92   1.42    5   88    7  63.9 -99.9 1019.4 -9.9 -9.999 -99.9 -99.99 -9.99
2018/10/16 20:12 EDT    0.90   1.37    6  101    9  63.9 -99.9 1019.3 -9.9 -9.999 -99.9 -99.99 -9.99
2018/10/16 20:18 EDT    0.88   1.35    8   90   12  64.0 -99.9 1019.3 -9.9 -9.999 -99.9 -99.99 -9.99
2018/10/16 20:24 EDT    0.86   1.33    6   67    9  63.9 -99.9 1019.4 -9.9 -9.999 -99.9 -99.99 -9.99
2018/10/16 20:30 EDT    0.84   1.30    4   66    8  63.9 -99.9 1019.6 -9.9 -9.999 -99.9 -99.99 -9.99
2018/10/16 20:36 EDT    0.83   1.26    4   76    7  64.0 -99.9 1019.6 -9.9 -9.999 -99.9 -99.99 -9.99
2018/10/16 20:42 EDT    0.82   1.23    2   51    5  64.2 -99.9 1019.7 -9.9 -9.999 -99.9 -99.99 -9.99
2018/10/16 20:48 EDT    0.81   1.21    2   98    4  64.4 -99.9 1019.7 -9.9 -9.999 -99.9 -99.99 -9.99
2018/10/16 20:54 EDT    0.80   1.18    6   52    8  64.2 -99.9 1019.6 -9.9 -9.999 -99.9 -99.99 -9.99
2018/10/16 21:00 EDT    0.80   1.21    6   50    8  64.2 -99.9 1019.4 -9.9 -9.999 -99.9 -99.99 -9.99
2018/10/16 21:06 EDT    0.79   1.21    3   45    6  64.0 -99.9 1019.4 -9.9 -9.999 -99.9 -99.99 -9.99
2018/10/16 21:12 EDT    0.79   1.21    6  114    7  64.4 -99.9 1018.9 -9.9 -9.999 -99.9 -99.99 -9.99
2018/10/16 21:18 EDT    0.79   1.22    6  114    9  64.6 -99.9 1019.0 -9.9 -9.999 -99.9 -99.99 -9.99
2018/10/16 21:24 EDT    0.80   1.20    6  118   10  64.8 -99.9 1018.7 -9.9 -9.999 -99.9 -99.99 -9.99
2018/10/16 21:30 EDT    0.81   1.19   10  131   12  64.8 -99.9 1018.6 -9.9 -9.999 -99.9 -99.99 -9.99
2018/10/16 21:36 EDT    0.81   1.22    7  128   12  64.8 -99.9 1018.8 -9.9 -9.999 -99.9 -99.99 -9.99
2018/10/16 21:42 EDT    0.83   1.18    8  150   10  64.8 -99.9 1018.9 -9.9 -9.999 -99.9 -99.99 -9.99
2018/10/16 21:48 EDT    0.84   1.18    8  137   10  64.9 -99.9 1018.9 -9.9 -9.999 -99.9 -99.99 -9.99
2018/10/16 21:54 EDT    0.86   1.23    6  142   10  64.9 -99.9 1019.0 -9.9 -9.999 -99.9 -99.99 -9.99
2018/10/16 22:00 EDT    0.87   1.25    6  134    9  64.9 -99.9 1018.9 -9.9 -9.999 -99.9 -99.99 -9.99
2018/10/16 22:06 EDT    0.89   1.23    7  126    8  64.9 -99.9 1019.1 -9.9 -9.999 -99.9 -99.99 -9.99
2018/10/16 22:12 EDT    0.92   1.25    5  117    7  64.9 -99.9 1019.2 -9.9 -9.999 -99.9 -99.99 -9.99
2018/10/16 22:18 EDT    0.94   1.27    4  135    7  64.8 -99.9 1019.5 -9.9 -9.999 -99.9 -99.99 -9.99
2018/10/16 22:24 EDT    0.97   1.31    7  131    9  64.8 -99.9 1019.0 -9.9 -9.999 -99.9 -99.99 -9.99
2018/10/16 22:30 EDT    0.99   1.33    7  128    8  64.8 -99.9 1019.1 -9.9 -9.999 -99.9 -99.99 -9.99
2018/10/16 22:36 EDT    1.02   1.32    6  141    8  64.9 -99.9 1019.1 -9.9 -9.999 -99.9 -99.99 -9.99
2018/10/16 22:42 EDT    1.06   1.34    5  138    9  64.9 -99.9 1019.0 -9.9 -9.999 -99.9 -99.99 -9.99
2018/10/16 22:48 EDT    1.09   1.39    6  111    8  64.9 -99.9 1018.9 -9.9 -9.999 -99.9 -99.99 -9.99
2018/10/16 22:54 EDT    1.12   1.39    9  120   11  65.1 -99.9 1018.5 -9.9 -9.999 -99.9 -99.99 -9.99
2018/10/16 23:00 EDT    1.16   1.45    9  128   11  64.9 -99.9 1018.5 -9.9 -9.999 -99.9 -99.99 -9.99
2018/10/16 23:06 EDT    1.20   1.50    9  149   11  64.9 -99.9 1018.4 -9.9 -9.999 -99.9 -99.99 -9.99
2018/10/16 23:12 EDT    1.23   1.55    6  150   10  64.9 -99.9 1018.6 -9.9 -9.999 -99.9 -99.99 -9.99
2018/10/16 23:18 EDT    1.27   1.60    8  156   10  65.1 -99.9 1018.7 -9.9 -9.999 -99.9 -99.99 -9.99
2018/10/16 23:24 EDT    1.31   1.67    6  146   11  64.9 -99.9 1018.7 -9.9 -9.999 -99.9 -99.99 -9.99
2018/10/16 23:30 EDT    1.35   1.74    9  167   11  65.1 -99.9 1018.6 -9.9 -9.999 -99.9 -99.99 -9.99
2018/10/16 23:36 EDT    1.39   1.79    9  167   11  65.1 -99.9 1018.5 -9.9 -9.999 -99.9 -99.99 -9.99
2018/10/16 23:42 EDT    1.44   1.79   10  156   11  65.1 -99.9 1018.3 -9.9 -9.999 -99.9 -99.99 -9.99
2018/10/16 23:48 EDT    1.48   1.89    9  152   11  65.1 -99.9 1018.4 -9.9 -9.999 -99.9 -99.99 -9.99
2018/10/16 23:54 EDT    1.52   1.93    8  161   12  65.3 -99.9 1018.3 -9.9 -9.999 -99.9 -99.99 -9.99
2018/10/17 00:00 EDT    1.56   1.98    7  154   10  65.5 -99.9 1018.2 -9.9 -9.999 -99.9 -99.99 -9.99
2018/10/17 00:06 EDT    1.61   2.02    9  169   11  65.5 -99.9 1018.4 -9.9 -9.999 -99.9 -99.99 -9.99
2018/10/17 00:12 EDT    1.65   2.09    9  168   12  65.5 -99.9 1018.4 -9.9 -9.999 -99.9 -99.99 -9.99
2018/10/17 00:18 EDT    1.69   2.12    8  167   10  65.7 -99.9 1018.4 -9.9 -9.999 -99.9 -99.99 -9.99
2018/10/17 00:24 EDT    1.73   2.18    6  166   11  65.5 -99.9 1018.1 -9.9 -9.999 -99.9 -99.99 -9.99
2018/10/17 00:30 EDT    1.77   2.24    7  158   11  65.5 -99.9 1017.9 -9.9 -9.999 -99.9 -99.99 -9.99
2018/10/17 00:36 EDT    1.82   2.29    7  151   10  65.7 -99.9 1017.9 -9.9 -9.999 -99.9 -99.99 -9.99
2018/10/17 00:42 EDT    1.86   2.31    7  166   10  65.7 -99.9 1018.0 -9.9 -9.999 -99.9 -99.99 -9.99
2018/10/17 00:48 EDT    1.90   2.33    6  164    8  65.7 -99.9 1018.1 -9.9 -9.999 -99.9 -99.99 -9.99
2018/10/17 00:54 EDT    1.94   2.36    7  180    9  65.8 -99.9 1018.2 -9.9 -9.999 -99.9 -99.99 -9.99
2018/10/17 01:00 EDT    1.97   2.38    7  174    9  65.8 -99.9 1018.0 -9.9 -9.999 -99.9 -99.99 -9.99
2018/10/17 01:06 EDT    2.01   2.38    6  171    9  65.7 -99.9 1017.9 -9.9 -9.999 -99.9 -99.99 -9.99
2018/10/17 01:12 EDT    2.05   2.40    5  197    9  65.7 -99.9 1017.8 -9.9 -9.999 -99.9 -99.99 -9.99
2018/10/17 01:18 EDT    2.08   2.41    6  179    7  65.8 -99.9 1017.8 -9.9 -9.999 -99.9 -99.99 -9.99
2018/10/17 01:24 EDT    2.11   2.41    6  180    8  65.7 -99.9 1017.7 -9.9 -9.999 -99.9 -99.99 -9.99
2018/10/17 01:30 EDT    2.15   2.43    7  176    9  65.8 -99.9 1017.7 -9.9 -9.999 -99.9 -99.99 -9.99
2018/10/17 01:36 EDT    2.17   2.45    7  182    9  65.7 -99.9 1017.6 -9.9 -9.999 -99.9 -99.99 -9.99
2018/10/17 01:42 EDT    2.20   2.48    8  182   10  65.7 -99.9 1017.7 -9.9 -9.999 -99.9 -99.99 -9.99
2018/10/17 01:48 EDT    2.23   2.49    8  194   11  65.5 -99.9 1017.7 -9.9 -9.999 -99.9 -99.99 -9.99
2018/10/17 01:54 EDT    2.25   2.46   10  186   12  65.7 -99.9 1017.7 -9.9 -9.999 -99.9 -99.99 -9.99
2018/10/17 02:00 EDT    2.27   2.51    9  188   11  65.5 -99.9 1017.7 -9.9 -9.999 -99.9 -99.99 -9.99
2018/10/17 02:06 EDT    2.29   2.53    8  181   11  65.3 -99.9 1017.4 -9.9 -9.999 -99.9 -99.99 -9.99
2018/10/17 02:12 EDT    2.31   2.55    9  180   11  65.5 -99.9 1017.3 -9.9 -9.999 -99.9 -99.99 -9.99
2018/10/17 02:18 EDT    2.33   2.57    8  178   11  65.3 -99.9 1017.2 -9.9 -9.999 -99.9 -99.99 -9.99
2018/10/17 02:24 EDT    2.34   2.56    9  182   10  65.3 -99.9 1017.0 -9.9 -9.999 -99.9 -99.99 -9.99
2018/10/17 02:30 EDT    2.36   2.60    9  176   11  65.3 -99.9 1016.8 -9.9 -9.999 -99.9 -99.99 -9.99
2018/10/17 02:36 EDT    2.37   2.61    7  180   10  65.7 -99.9 1016.8 -9.9 -9.999 -99.9 -99.99 -9.99
2018/10/17 02:42 EDT    2.38   2.61    7  183    9  65.5 -99.9 1016.7 -9.9 -9.999 -99.9 -99.99 -9.99
2018/10/17 02:48 EDT    2.38   2.63    8  180    9  65.5 -99.9 1016.7 -9.9 -9.999 -99.9 -99.99 -9.99
2018/10/17 02:54 EDT    2.39   2.64    8  176    9  65.7 -99.9 1016.6 -9.9 -9.999 -99.9 -99.99 -9.99
2018/10/17 03:00 EDT    2.39   2.62    6  174    9  65.7 -99.9 1016.6 -9.9 -9.999 -99.9 -99.99 -9.99
2018/10/17 03:06 EDT    2.39   2.65    7  184    9  65.7 -99.9 1016.5 -9.9 -9.999 -99.9 -99.99 -9.99
2018/10/17 03:12 EDT    2.39   2.64    8  176    9  65.5 -99.9 1016.4 -9.9 -9.999 -99.9 -99.99 -9.99
2018/10/17 03:18 EDT    2.39   2.64    7  178    9  65.8 -99.9 1016.3 -9.9 -9.999 -99.9 -99.99 -9.99
2018/10/17 03:24 EDT    2.39   2.64    8  188   10  65.7 -99.9 1016.3 -9.9 -9.999 -99.9 -99.99 -9.99
2018/10/17 03:30 EDT    2.39   2.61    9  181   11  65.7 -99.9 1016.2 -9.9 -9.999 -99.9 -99.99 -9.99
2018/10/17 03:36 EDT    2.38   2.61    8  183   10  65.5 -99.9 1016.1 -9.9 -9.999 -99.9 -99.99 -9.99
2018/10/17 03:42 EDT    2.37   2.60    9  181   11  65.5 -99.9 1016.2 -9.9 -9.999 -99.9 -99.99 -9.99
2018/10/17 03:48 EDT    2.36   2.58    8  181   10  65.7 -99.9 1016.1 -9.9 -9.999 -99.9 -99.99 -9.99
2018/10/17 03:54 EDT    2.35   2.59    7  191   10  65.7 -99.9 1016.2 -9.9 -9.999 -99.9 -99.99 -9.99
2018/10/17 04:00 EDT    2.34   2.55    8  187   10  65.3 -99.9 1016.2 -9.9 -9.999 -99.9 -99.99 -9.99
2018/10/17 04:06 EDT    2.33   2.53    8  181   10  65.5 -99.9 1016.2 -9.9 -9.999 -99.9 -99.99 -9.99
2018/10/17 04:12 EDT    2.32   2.53    8  183   10  65.3 -99.9 1016.2 -9.9 -9.999 -99.9 -99.99 -9.99
2018/10/17 04:18 EDT    2.30   2.50    8  188   10  65.3 -99.9 1016.3 -9.9 -9.999 -99.9 -99.99 -9.99
2018/10/17 04:24 EDT    2.28   2.49    8  192   10  65.1 -99.9 1016.3 -9.9 -9.999 -99.9 -99.99 -9.99
2018/10/17 04:30 EDT    2.26   2.48    7  191   10  65.1 -99.9 1016.1 -9.9 -9.999 -99.9 -99.99 -9.99
2018/10/17 04:36 EDT    2.24   2.44    7  186    9  65.1 -99.9 1016.1 -9.9 -9.999 -99.9 -99.99 -9.99
2018/10/17 04:42 EDT    2.22   2.45    7  191    9  65.1 -99.9 1016.1 -9.9 -9.999 -99.9 -99.99 -9.99
2018/10/17 04:48 EDT    2.20   2.42    5  207    8  65.3 -99.9 1016.1 -9.9 -9.999 -99.9 -99.99 -9.99
2018/10/17 04:54 EDT    2.17   2.37    8  213    9  65.5 -99.9 1016.1 -9.9 -9.999 -99.9 -99.99 -9.99
2018/10/17 05:00 EDT    2.15   2.35    7  224    9  65.3 -99.9 1016.1 -9.9 -9.999 -99.9 -99.99 -9.99
2018/10/17 05:06 EDT    2.12   2.32    7  228    9  65.5 -99.9 1016.3 -9.9 -9.999 -99.9 -99.99 -9.99
2018/10/17 05:12 EDT    2.09   2.27    9  227   11  65.3 -99.9 1016.4 -9.9 -9.999 -99.9 -99.99 -9.99
2018/10/17 05:18 EDT    2.06   2.26    8  230   12  65.3 -99.9 1016.3 -9.9 -9.999 -99.9 -99.99 -9.99
2018/10/17 05:24 EDT    2.02   2.19    9  226   13  65.1 -99.9 1016.4 -9.9 -9.999 -99.9 -99.99 -9.99
2018/10/17 05:30 EDT    1.99   2.16    8  231   11  65.3 -99.9 1016.4 -9.9 -9.999 -99.9 -99.99 -9.99
2018/10/17 05:36 EDT    1.95   2.14   10  228   12  65.1 -99.9 1016.4 -9.9 -9.999 -99.9 -99.99 -9.99
2018/10/17 05:42 EDT    1.92   2.09   10  237   14  65.3 -99.9 1016.5 -9.9 -9.999 -99.9 -99.99 -9.99
2018/10/17 05:48 EDT    1.88   2.05   11  232   14  65.3 -99.9 1016.5 -9.9 -9.999 -99.9 -99.99 -9.99
2018/10/17 05:54 EDT    1.84   2.03   10  231   12  65.3 -99.9 1016.4 -9.9 -9.999 -99.9 -99.99 -9.99
2018/10/17 06:00 EDT    1.80   1.96    9  234   12  65.5 -99.9 1016.4 -9.9 -9.999 -99.9 -99.99 -9.99
2018/10/17 06:06 EDT    1.76   1.93   10  238   13  65.5 -99.9 1016.4 -9.9 -9.999 -99.9 -99.99 -9.99
2018/10/17 06:12 EDT    1.71   1.87   11  239   14  65.5 -99.9 1016.2 -9.9 -9.999 -99.9 -99.99 -9.99
2018/10/17 06:18 EDT    1.67   1.87   12  245   14  65.7 -99.9 1016.2 -9.9 -9.999 -99.9 -99.99 -9.99
2018/10/17 06:24 EDT    1.63   1.82   13  249   15  66.0 -99.9 1016.2 -9.9 -9.999 -99.9 -99.99 -9.99
2018/10/17 06:30 EDT    1.59   1.76   12  245   16  66.0 -99.9 1016.2 -9.9 -9.999 -99.9 -99.99 -9.99
2018/10/17 06:36 EDT    1.54   1.74   12  245   15  66.2 -99.9 1016.2 -9.9 -9.999 -99.9 -99.99 -9.99
2018/10/17 06:42 EDT    1.50   1.78   12  243   14  66.2 -99.9 1016.2 -9.9 -9.999 -99.9 -99.99 -9.99
2018/10/17 06:48 EDT    1.46   1.70   12  258   14  66.2 -99.9 1016.3 -9.9 -9.999 -99.9 -99.99 -9.99
2018/10/17 06:54 EDT    1.42   1.67   12  271   15  66.4 -99.9 1016.2 -9.9 -9.999 -99.9 -99.99 -9.99
2018/10/17 07:00 EDT    1.38   1.63   12  270   14  66.7 -99.9 1016.4 -9.9 -9.999 -99.9 -99.99 -9.99
2018/10/17 07:06 EDT    1.33   1.58   12  272   14  66.9 -99.9 1016.3 -9.9 -9.999 -99.9 -99.99 -9.99
2018/10/17 07:12 EDT    1.30   1.56   13  277   16  66.9 -99.9 1016.2 -9.9 -9.999 -99.9 -99.99 -9.99
2018/10/17 07:18 EDT    1.26   1.51   16  281   20  66.9 -99.9 1016.3 -9.9 -9.999 -99.9 -99.99 -9.99
2018/10/17 07:24 EDT    1.22   1.49   15  290   19  66.9 -99.9 1016.5 -9.9 -9.999 -99.9 -99.99 -9.99
2018/10/17 07:30 EDT    1.18   1.43   17  288   19  66.6 -99.9 1016.6 -9.9 -9.999 -99.9 -99.99 -9.99
2018/10/17 07:36 EDT    1.15   1.37   13  281   18  66.2 -99.9 1016.4 -9.9 -9.999 -99.9 -99.99 -9.99
2018/10/17 07:42 EDT    1.12   1.34   14  284   16  66.0 -99.9 1016.5 -9.9 -9.999 -99.9 -99.99 -9.99
2018/10/17 07:48 EDT    1.08   1.33   13  280   15  66.0 -99.9 1016.5 -9.9 -9.999 -99.9 -99.99 -9.99
2018/10/17 07:54 EDT    1.05   1.32   14  282   16  66.2 -99.9 1016.6 -9.9 -9.999 -99.9 -99.99 -9.99
2018/10/17 08:00 EDT    1.03   1.31   14  279   16  66.2 -99.9 1016.7 -9.9 -9.999 -99.9 -99.99 -9.99
2018/10/17 08:06 EDT    1.00   1.27   13  280   16  66.2 -99.9 1016.7 -9.9 -9.999 -99.9 -99.99 -9.99
2018/10/17 08:12 EDT    0.98   1.22   16  285   18  66.2 -99.9 1016.7 -9.9 -9.999 -99.9 -99.99 -9.99
2018/10/17 08:18 EDT    0.95   1.22   15  285   17  66.2 -99.9 1016.9 -9.9 -9.999 -99.9 -99.99 -9.99
2018/10/17 08:24 EDT    0.93   1.19   15  286   18  66.2 -99.9 1016.9 -9.9 -9.999 -99.9 -99.99 -9.99
2018/10/17 08:30 EDT    0.91   1.18   16  283   19  66.0 -99.9 1016.8 -9.9 -9.999 -99.9 -99.99 -9.99
2018/10/17 08:36 EDT    0.90   1.16   16  288   20  66.0 -99.9 1017.0 -9.9 -9.999 -99.9 -99.99 -9.99
2018/10/17 08:42 EDT    0.88   1.15   19  294   22  65.7 -99.9 1017.1 -9.9 -9.999 -99.9 -99.99 -9.99
2018/10/17 08:48 EDT    0.87   1.16   17  301   21  65.7 -99.9 1017.3 -9.9 -9.999 -99.9 -99.99 -9.99
2018/10/17 08:54 EDT    0.86   1.13   18  303   20  65.3 -99.9 1017.3 -9.9 -9.999 -99.9 -99.99 -9.99
2018/10/17 09:00 EDT    0.85   1.15   18  302   21  65.1 -99.9 1017.5 -9.9 -9.999 -99.9 -99.99 -9.99
2018/10/17 09:06 EDT    0.85   1.15   18  305   20  65.1 -99.9 1017.6 -9.9 -9.999 -99.9 -99.99 -9.99
2018/10/17 09:12 EDT    0.84   1.14   16  305   20  65.1 -99.9 1017.5 -9.9 -9.999 -99.9 -99.99 -9.99
2018/10/17 09:18 EDT    0.84   1.12   17  307   19  64.8 -99.9 1017.6 -9.9 -9.999 -99.9 -99.99 -9.99
2018/10/17 09:24 EDT    0.84   1.13   16  305   18  64.8 -99.9 1017.7 -9.9 -9.999 -99.9 -99.99 -9.99
2018/10/17 09:30 EDT    0.85   1.11   15  305   18  64.8 -99.9 1017.7 -9.9 -9.999 -99.9 -99.99 -9.99
2018/10/17 09:36 EDT    0.85   1.09   15  311   18  64.8 -99.9 1017.8 -9.9 -9.999 -99.9 -99.99 -9.99
2018/10/17 09:42 EDT    0.86   1.12   16  306   17  64.6 -99.9 1017.8 -9.9 -9.999 -99.9 -99.99 -9.99
2018/10/17 09:48 EDT    0.87   1.12   17  304   19  64.8 -99.9 1017.8 -9.9 -9.999 -99.9 -99.99 -9.99
2018/10/17 09:54 EDT    0.89   1.13   15  310   19  64.9 -99.9 1017.8 -9.9 -9.999 -99.9 -99.99 -9.99
2018/10/17 10:00 EDT    0.90   1.17   18  309   21  64.9 -99.9 1017.8 -9.9 -9.999 -99.9 -99.99 -9.99
2018/10/17 10:06 EDT    0.92   1.18   16  311   23  64.8 -99.9 1017.9 -9.9 -9.999 -99.9 -99.99 -9.99
2018/10/17 10:12 EDT    0.94   1.17   15  316   19  64.8 -99.9 1017.8 -9.9 -9.999 -99.9 -99.99 -9.99
2018/10/17 10:18 EDT    0.96   1.17   16  322   18  64.8 -99.9 1017.8 -9.9 -9.999 -99.9 -99.99 -9.99
2018/10/17 10:24 EDT    0.99   1.19   15  314   18  64.9 -99.9 1017.8 -9.9 -9.999 -99.9 -99.99 -9.99
2018/10/17 10:30 EDT    1.01   1.25   15  313   20  65.1 -99.9 1017.8 -9.9 -9.999 -99.9 -99.99 -9.99
2018/10/17 10:36 EDT    1.04   1.25   17  329   20  64.8 -99.9 1017.8 -9.9 -9.999 -99.9 -99.99 -9.99
2018/10/17 10:42 EDT    1.07   1.24   13  321   17  64.4 -99.9 1017.8 -9.9 -9.999 -99.9 -99.99 -9.99
2018/10/17 10:48 EDT    1.10   1.25   14  330   16  64.6 -99.9 1017.7 -9.9 -9.999 -99.9 -99.99 -9.99
2018/10/17 10:54 EDT    1.13   1.30   13  328   16  64.6 -99.9 1017.7 -9.9 -9.999 -99.9 -99.99 -9.99
2018/10/17 11:00 EDT    1.17   1.37   14  323   16  64.6 -99.9 1017.9 -9.9 -9.999 -99.9 -99.99 -9.99
2018/10/17 11:06 EDT    1.21   1.39   16  318   18  64.6 -99.9 1017.9 -9.9 -9.999 -99.9 -99.99 -9.99
2018/10/17 11:12 EDT    1.24   1.38   15  323   18  64.2 -99.9 1017.9 -9.9 -9.999 -99.9 -99.99 -9.99
2018/10/17 11:18 EDT    1.28   1.47   14  325   18  63.9 -99.9 1017.9 -9.9 -9.999 -99.9 -99.99 -9.99
2018/10/17 11:24 EDT    1.32   1.48   15  327   18  63.9 -99.9 1018.0 -9.9 -9.999 -99.9 -99.99 -9.99
2018/10/17 11:30 EDT    1.36   1.46   15  328   19  63.7 -99.9 1018.1 -9.9 -9.999 -99.9 -99.99 -9.99
2018/10/17 11:36 EDT    1.41   1.55   13  325   17  63.7 -99.9 1018.1 -9.9 -9.999 -99.9 -99.99 -9.99
2018/10/17 11:42 EDT    1.45   1.53   15  324   17  63.7 -99.9 1018.2 -9.9 -9.999 -99.9 -99.99 -9.99
2018/10/17 11:48 EDT    1.49   1.52   16  322   18  63.5 -99.9 1018.3 -9.9 -9.999 -99.9 -99.99 -9.99
2018/10/17 11:54 EDT    1.54   1.59   16  334   17  63.3 -99.9 1018.3 -9.9 -9.999 -99.9 -99.99 -9.99
2018/10/17 12:00 EDT    1.58   1.64   15  333   17  63.1 -99.9 1018.3 -9.9 -9.999 -99.9 -99.99 -9.99
2018/10/17 12:06 EDT    1.63   1.66   13  324   16  63.3 -99.9 1018.3 -9.9 -9.999 -99.9 -99.99 -9.99
2018/10/17 12:12 EDT    1.67   1.72   13  329   16  63.3 -99.9 1018.3 -9.9 -9.999 -99.9 -99.99 -9.99
2018/10/17 12:18 EDT    1.72   1.78   12  321   15  63.5 -99.9 1018.2 -9.9 -9.999 -99.9 -99.99 -9.99
2018/10/17 12:24 EDT    1.77   1.82   12  320   15  63.3 -99.9 1018.3 -9.9 -9.999 -99.9 -99.99 -9.99
2018/10/17 12:30 EDT    1.81   1.84   13  323   16  63.5 -99.9 1018.2 -9.9 -9.999 -99.9 -99.99 -9.99
2018/10/17 12:36 EDT    1.86   1.90   13  325   15  63.5 -99.9 1018.1 -9.9 -9.999 -99.9 -99.99 -9.99
2018/10/17 12:42 EDT    1.91   1.93   12  316   15  63.7 -99.9 1018.0 -9.9 -9.999 -99.9 -99.99 -9.99
2018/10/17 12:48 EDT    1.95   2.01   11  308   14  63.7 -99.9 1017.9 -9.9 -9.999 -99.9 -99.99 -9.99
2018/10/17 12:54 EDT    2.00   2.04   11  311   14  64.0 -99.9 1017.8 -9.9 -9.999 -99.9 -99.99 -9.99
2018/10/17 13:00 EDT    2.05   2.10   12  317   14  64.2 -99.9 1017.8 -9.9 -9.999 -99.9 -99.99 -9.99
2018/10/17 13:06 EDT    2.09   2.11   10  323   14  64.2 -99.9 1017.6 -9.9 -9.999 -99.9 -99.99 -9.99
2018/10/17 13:12 EDT    2.13   2.20   11  321   14  64.4 -99.9 1017.5 -9.9 -9.999 -99.9 -99.99 -9.99
2018/10/17 13:18 EDT    2.18   2.23   11  320   16  64.2 -99.9 1017.4 -9.9 -9.999 -99.9 -99.99 -9.99
2018/10/17 13:24 EDT    2.22   2.27   11  309   13  64.6 -99.9 1017.3 -9.9 -9.999 -99.9 -99.99 -9.99
2018/10/17 13:30 EDT    2.26   2.37   11  309   14  64.6 -99.9 1017.2 -9.9 -9.999 -99.9 -99.99 -9.99
2018/10/17 13:36 EDT    2.30   2.39   10  299   12  64.8 -99.9 1017.1 -9.9 -9.999 -99.9 -99.99 -9.99
2018/10/17 13:42 EDT    2.34   2.40   10  308   11  64.6 -99.9 1017.0 -9.9 -9.999 -99.9 -99.99 -9.99
2018/10/17 13:48 EDT    2.37   2.47    9  310   12  64.8 -99.9 1017.0 -9.9 -9.999 -99.9 -99.99 -9.99
2018/10/17 13:54 EDT    2.41   2.52    7  298    9  64.8 -99.9 1016.7 -9.9 -9.999 -99.9 -99.99 -9.99
2018/10/17 14:00 EDT    2.44   2.53    6  301    9  64.9 -99.9 1016.7 -9.9 -9.999 -99.9 -99.99 -9.99
2018/10/17 14:06 EDT    2.47   2.60    6  304    8  65.1 -99.9 1016.5 -9.9 -9.999 -99.9 -99.99 -9.99
2018/10/17 14:12 EDT    2.50   2.63    5  271    8  65.7 -99.9 1016.4 -9.9 -9.999 -99.9 -99.99 -9.99
2018/10/17 14:18 EDT    2.53   2.64    6  291    7  65.5 -99.9 1016.3 -9.9 -9.999 -99.9 -99.99 -9.99
2018/10/17 14:24 EDT    2.56   2.65    5  287    7  65.7 -99.9 1016.2 -9.9 -9.999 -99.9 -99.99 -9.99
2018/10/17 14:30 EDT    2.58   2.67    8  280   10  66.4 -99.9 1016.1 -9.9 -9.999 -99.9 -99.99 -9.99
2018/10/17 14:36 EDT    2.60   2.68   10  265   14  66.7 -99.9 1016.0 -9.9 -9.999 -99.9 -99.99 -9.99
2018/10/17 14:42 EDT    2.62   2.67    9  278   14  66.9 -99.9 1015.9 -9.9 -9.999 -99.9 -99.99 -9.99
2018/10/17 14:48 EDT    2.64   2.68   11  259   14  66.9 -99.9 1015.9 -9.9 -9.999 -99.9 -99.99 -9.99
2018/10/17 14:54 EDT    2.65   2.75   12  270   16  66.9 -99.9 1015.9 -9.9 -9.999 -99.9 -99.99 -9.99
2018/10/17 15:00 EDT    2.66   2.68   10  273   15  67.1 -99.9 1015.8 -9.9 -9.999 -99.9 -99.99 -9.99
2018/10/17 15:06 EDT    2.67   2.70   12  268   14  67.3 -99.9 1015.8 -9.9 -9.999 -99.9 -99.99 -9.99
2018/10/17 15:12 EDT    2.68   2.76   14  263   17  67.5 -99.9 1015.6 -9.9 -9.999 -99.9 -99.99 -9.99
2018/10/17 15:18 EDT    2.69   2.77   13  264   17  67.5 -99.9 1015.6 -9.9 -9.999 -99.9 -99.99 -9.99
2018/10/17 15:24 EDT    2.69   2.77   11  267   14  67.6 -99.9 1015.6 -9.9 -9.999 -99.9 -99.99 -9.99
2018/10/17 15:30 EDT    2.70   2.81   11  266   12  67.8 -99.9 1015.6 -9.9 -9.999 -99.9 -99.99 -9.99
2018/10/17 15:36 EDT    2.70   2.78   12  270   14  68.0 -99.9 1015.6 -9.9 -9.999 -99.9 -99.99 -9.99
2018/10/17 15:42 EDT    2.70   2.79   12  270   14  68.2 -99.9 1015.5 -9.9 -9.999 -99.9 -99.99 -9.99
2018/10/17 15:48 EDT    2.69   2.79   11  273   14  68.4 -99.9 1015.6 -9.9 -9.999 -99.9 -99.99 -9.99
2018/10/17 15:54 EDT    2.69   2.77   12  265   15  68.4 -99.9 1015.6 -9.9 -9.999 -99.9 -99.99 -9.99
2018/10/17 16:00 EDT    2.68   2.78   12  270   17  68.5 -99.9 1015.5 -9.9 -9.999 -99.9 -99.99 -9.99
2018/10/17 16:06 EDT    2.68   2.79   14  273   17  68.7 -99.9 1015.6 -9.9 -9.999 -99.9 -99.99 -9.99
2018/10/17 16:12 EDT    2.67   2.76   15  260   19  69.1 -99.9 1015.7 -9.9 -9.999 -99.9 -99.99 -9.99
2018/10/17 16:18 EDT    2.66   2.78   16  267   19  68.9 -99.9 1015.6 -9.9 -9.999 -99.9 -99.99 -9.99
2018/10/17 16:24 EDT    2.65   2.78   16  268   20  68.9 -99.9 1015.6 -9.9 -9.999 -99.9 -99.99 -9.99
2018/10/17 16:30 EDT    2.63   2.77   17  264   21  69.1 -99.9 1015.6 -9.9 -9.999 -99.9 -99.99 -9.99
2018/10/17 16:36 EDT    2.62   2.79   16  274   22  69.3 -99.9 1015.7 -9.9 -9.999 -99.9 -99.99 -9.99
2018/10/17 16:42 EDT    2.60   2.76   15  269   21  69.3 -99.9 1015.8 -9.9 -9.999 -99.9 -99.99 -9.99
2018/10/17 16:48 EDT    2.58   2.70   13  269   17  69.3 -99.9 1015.9 -9.9 -9.999 -99.9 -99.99 -9.99
2018/10/17 16:54 EDT    2.56   2.72   14  273   18  68.7 -99.9 1015.9 -9.9 -9.999 -99.9 -99.99 -9.99
2018/10/17 17:00 EDT    2.54   2.71   14  271   17  68.9 -99.9 1016.1 -9.9 -9.999 -99.9 -99.99 -9.99
2018/10/17 17:06 EDT    2.51   2.69   15  269   17  68.7 -99.9 1016.2 -9.9 -9.999 -99.9 -99.99 -9.99
2018/10/17 17:12 EDT    2.49   2.68   14  265   18  68.7 -99.9 1016.2 -9.9 -9.999 -99.9 -99.99 -9.99
2018/10/17 17:18 EDT    2.46   2.64   17  284   18  68.9 -99.9 1016.1 -9.9 -9.999 -99.9 -99.99 -9.99
2018/10/17 17:24 EDT    2.43   2.62   17  267   20  68.9 -99.9 1016.2 -9.9 -9.999 -99.9 -99.99 -9.99
2018/10/17 17:30 EDT    2.40   2.62   15  284   17  69.3 -99.9 1016.2 -9.9 -9.999 -99.9 -99.99 -9.99
2018/10/17 17:36 EDT    2.37   2.57   18  288   21  69.3 -99.9 1016.3 -9.9 -9.999 -99.9 -99.99 -9.99
2018/10/17 17:42 EDT    2.33   2.54   17  287   20  69.1 -99.9 1016.4 -9.9 -9.999 -99.9 -99.99 -9.99
2018/10/17 17:48 EDT    2.29   2.50   14  275   19  69.1 -99.9 1016.4 -9.9 -9.999 -99.9 -99.99 -9.99
2018/10/17 17:54 EDT    2.25   2.51   17  295   21  69.1 -99.9 1016.5 -9.9 -9.999 -99.9 -99.99 -9.99
2018/10/17 18:00 EDT    2.21   2.42   16  290   21  69.1 -99.9 1016.6 -9.9 -9.999 -99.9 -99.99 -9.99
2018/10/17 18:06 EDT    2.17   2.42   16  288   20  68.9 -99.9 1016.7 -9.9 -9.999 -99.9 -99.99 -9.99
2018/10/17 18:12 EDT    2.13   2.35   16  285   19  68.9 -99.9 1016.8 -9.9 -9.999 -99.9 -99.99 -9.99
2018/10/17 18:18 EDT    2.08   2.30   16  286   18  68.5 -99.9 1016.8 -9.9 -9.999 -99.9 -99.99 -9.99
2018/10/17 18:24 EDT    2.04   2.24   15  296   18  68.5 -99.9 1016.9 -9.9 -9.999 -99.9 -99.99 -9.99
2018/10/17 18:30 EDT    1.99   2.17   15  292   18  68.4 -99.9 1017.0 -9.9 -9.999 -99.9 -99.99 -9.99
2018/10/17 18:36 EDT    1.94   2.13   15  293   17  68.4 -99.9 1017.0 -9.9 -9.999 -99.9 -99.99 -9.99
2018/10/17 18:42 EDT    1.89   2.07   14  290   17  68.5 -99.9 1017.0 -9.9 -9.999 -99.9 -99.99 -9.99
2018/10/17 18:48 EDT    1.84   2.00   15  287   18  68.4 -99.9 1017.0 -9.9 -9.999 -99.9 -99.99 -9.99
2018/10/17 18:54 EDT    1.79   1.96   13  284   17  68.5 -99.9 1017.1 -9.9 -9.999 -99.9 -99.99 -9.99
2018/10/17 19:00 EDT    1.74   1.88   13  287   15  68.5 -99.9 1017.3 -9.9 -9.999 -99.9 -99.99 -9.99
2018/10/17 19:06 EDT    1.69   1.85   15  283   18  68.5 -99.9 1017.3 -9.9 -9.999 -99.9 -99.99 -9.99
2018/10/17 19:12 EDT    1.64   1.79   15  287   19  68.5 -99.9 1017.4 -9.9 -9.999 -99.9 -99.99 -9.99
2018/10/17 19:18 EDT    1.59   1.72   15  283   17  68.4 -99.9 1017.6 -9.9 -9.999 -99.9 -99.99 -9.99
2018/10/17 19:24 EDT    1.54   1.66   14  275   17  68.4 -99.9 1017.7 -9.9 -9.999 -99.9 -99.99 -9.99
2018/10/17 19:30 EDT    1.50   1.62   15  265   17  68.0 -99.9 1017.8 -9.9 -9.999 -99.9 -99.99 -9.99
2018/10/17 19:36 EDT    1.45   1.62   14  273   18  67.8 -99.9 1017.9 -9.9 -9.999 -99.9 -99.99 -9.99
2018/10/17 19:42 EDT    1.40   1.52   14  274   17  67.8 -99.9 1018.0 -9.9 -9.999 -99.9 -99.99 -9.99
2018/10/17 19:48 EDT    1.35   1.50   15  274   18  67.8 -99.9 1018.0 -9.9 -9.999 -99.9 -99.99 -9.99
2018/10/17 19:54 EDT    1.31   1.45   17  273   19  67.5 -99.9 1018.1 -9.9 -9.999 -99.9 -99.99 -9.99
2018/10/17 20:00 EDT    1.27   1.37   16  278   22  67.6 -99.9 1018.2 -9.9 -9.999 -99.9 -99.99 -9.99
2018/10/17 20:06 EDT    1.22   1.30   17  281   21  67.5 -99.9 1018.2 -9.9 -9.999 -99.9 -99.99 -9.99
2018/10/17 20:12 EDT    1.18   1.25   16  276   19  67.3 -99.9 1018.3 -9.9 -9.999 -99.9 -99.99 -9.99
2018/10/17 20:18 EDT    1.14   1.21   17  277   19  67.3 -99.9 1018.3 -9.9 -9.999 -99.9 -99.99 -9.99
2018/10/17 20:24 EDT    1.11   1.10   17  276   20  67.3 -99.9 1018.4 -9.9 -9.999 -99.9 -99.99 -9.99
2018/10/17 20:30 EDT    1.07   1.05   18  279   20  67.3 -99.9 1018.4 -9.9 -9.999 -99.9 -99.99 -9.99
2018/10/17 20:36 EDT    1.04   1.02   16  278   19  67.3 -99.9 1018.4 -9.9 -9.999 -99.9 -99.99 -9.99
2018/10/17 20:42 EDT    1.01   1.00   16  278   18  67.1 -99.9 1018.5 -9.9 -9.999 -99.9 -99.99 -9.99
2018/10/17 20:48 EDT    0.98   0.96   15  281   18  67.1 -99.9 1018.6 -9.9 -9.999 -99.9 -99.99 -9.99
2018/10/17 20:54 EDT    0.95   0.91   15  280   18  67.1 -99.9 1018.7 -9.9 -9.999 -99.9 -99.99 -9.99
2018/10/17 21:00 EDT    0.92   0.87   15  281   17  67.1 -99.9 1018.8 -9.9 -9.999 -99.9 -99.99 -9.99
2018/10/17 21:06 EDT    0.90   0.81   14  278   17  67.1 -99.9 1018.8 -9.9 -9.999 -99.9 -99.99 -9.99
2018/10/17 21:12 EDT    0.88   0.79   14  280   16  67.1 -99.9 1019.0 -9.9 -9.999 -99.9 -99.99 -9.99
2018/10/17 21:18 EDT    0.86   0.80   13  282   16  67.3 -99.9 1019.0 -9.9 -9.999 -99.9 -99.99 -9.99
2018/10/17 21:24 EDT    0.84   0.77   13  279   15  67.3 -99.9 1019.1 -9.9 -9.999 -99.9 -99.99 -9.99
2018/10/17 21:30 EDT    0.83   0.78   13  276   15  67.3 -99.9 1019.0 -9.9 -9.999 -99.9 -99.99 -9.99
2018/10/17 21:36 EDT    0.82   0.79   13  271   16  67.1 -99.9 1019.1 -9.9 -9.999 -99.9 -99.99 -9.99
2018/10/17 21:42 EDT    0.81   0.73   13  268   15  67.1 -99.9 1019.2 -9.9 -9.999 -99.9 -99.99 -9.99
2018/10/17 21:48 EDT    0.80   0.79   13  257   15  66.6 -99.9 1019.3 -9.9 -9.999 -99.9 -99.99 -9.99
2018/10/17 21:54 EDT    0.79   0.75   13  249   15  66.6 -99.9 1019.4 -9.9 -9.999 -99.9 -99.99 -9.99
2018/10/17 22:00 EDT    0.79   0.75   13  251   15  66.6 -99.9 1019.5 -9.9 -9.999 -99.9 -99.99 -9.99
2018/10/17 22:06 EDT    0.79   0.76   13  254   15  66.6 -99.9 1019.5 -9.9 -9.999 -99.9 -99.99 -9.99
2018/10/17 22:12 EDT    0.79   0.76   13  257   14  66.4 -99.9 1019.6 -9.9 -9.999 -99.9 -99.99 -9.99
2018/10/17 22:18 EDT    0.80   0.78   12  255   14  66.4 -99.9 1019.7 -9.9 -9.999 -99.9 -99.99 -9.99
2018/10/17 22:24 EDT    0.80   0.81   12  258   14  66.2 -99.9 1019.7 -9.9 -9.999 -99.9 -99.99 -9.99
2018/10/17 22:30 EDT    0.81   0.85   10  271   14  66.2 -99.9 1019.8 -9.9 -9.999 -99.9 -99.99 -9.99
2018/10/17 22:36 EDT    0.82   0.83   12  282   14  66.6 -99.9 1019.8 -9.9 -9.999 -99.9 -99.99 -9.99
2018/10/17 22:42 EDT    0.84   0.87   13  284   15  66.6 -99.9 1019.8 -9.9 -9.999 -99.9 -99.99 -9.99
2018/10/17 22:48 EDT    0.85   0.87   13  290   16  66.6 -99.9 1019.9 -9.9 -9.999 -99.9 -99.99 -9.99
2018/10/17 22:54 EDT    0.87   0.90   14  290   16  66.4 -99.9 1020.0 -9.9 -9.999 -99.9 -99.99 -9.99
2018/10/17 23:00 EDT    0.89   0.94   14  299   16  66.4 -99.9 1020.1 -9.9 -9.999 -99.9 -99.99 -9.99
2018/10/17 23:06 EDT    0.91   0.98   14  305   16  65.8 -99.9 1020.1 -9.9 -9.999 -99.9 -99.99 -9.99
2018/10/17 23:12 EDT    0.94   0.98   14  315   16  65.7 -99.9 1020.2 -9.9 -9.999 -99.9 -99.99 -9.99
2018/10/17 23:18 EDT    0.96   1.00   15  317   17  65.3 -99.9 1020.3 -9.9 -9.999 -99.9 -99.99 -9.99
2018/10/17 23:24 EDT    0.99   1.08   17  320   19  65.1 -99.9 1020.4 -9.9 -9.999 -99.9 -99.99 -9.99
2018/10/17 23:30 EDT    1.02   1.15   16  325   19  64.8 -99.9 1020.5 -9.9 -9.999 -99.9 -99.99 -9.99
2018/10/17 23:36 EDT    1.05   1.25   16  331   19  65.3 -99.9 1020.5 -9.9 -9.999 -99.9 -99.99 -9.99
2018/10/17 23:42 EDT    1.08   1.25   20    4   23  66.2 -99.9 1020.5 -9.9 -9.999 -99.9 -99.99 -9.99
2018/10/17 23:48 EDT    1.11   1.33   19    8   22  66.4 -99.9 1020.6 -9.9 -9.999 -99.9 -99.99 -9.99
2018/10/17 23:54 EDT    1.15   1.34   20    7   23  66.4 -99.9 1020.6 -9.9 -9.999 -99.9 -99.99 -9.99
2018/10/18 00:00 EDT    1.18   1.42   21   13   25  66.0 -99.9 1020.6 -9.9 -9.999 -99.9 -99.99 -9.99
2018/10/18 00:06 EDT    1.22   1.51   22    7   24  65.8 -99.9 1020.7 -9.9 -9.999 -99.9 -99.99 -9.99
2018/10/18 00:12 EDT    1.26   1.52   23    7   26  65.8 -99.9 1020.7 -9.9 -9.999 -99.9 -99.99 -9.99
2018/10/18 00:18 EDT    1.30   1.63   22   12   26  65.8 -99.9 1020.8 -9.9 -9.999 -99.9 -99.99 -9.99
2018/10/18 00:24 EDT    1.34   1.71   21   11   25  65.7 -99.9 1020.8 -9.9 -9.999 -99.9 -99.99 -9.99
2018/10/18 00:30 EDT    1.38   1.78   23    5   27  65.5 -99.9 1020.9 -9.9 -9.999 -99.9 -99.99 -9.99
2018/10/18 00:36 EDT    1.42   1.81   21    7   26  65.3 -99.9 1020.9 -9.9 -9.999 -99.9 -99.99 -9.99
2018/10/18 00:42 EDT    1.46   1.90   22    6   25  65.1 -99.9 1020.9 -9.9 -9.999 -99.9 -99.99 -9.99
2018/10/18 00:48 EDT    1.50   1.96   22   12   28  64.9 -99.9 1021.0 -9.9 -9.999 -99.9 -99.99 -9.99
2018/10/18 00:54 EDT    1.55   1.96   21   15   26  64.9 -99.9 1021.1 -9.9 -9.999 -99.9 -99.99 -9.99
2018/10/18 01:00 EDT    1.59   1.98   22    7   26  64.9 -99.9 1021.2 -9.9 -9.999 -99.9 -99.99 -9.99
2018/10/18 01:06 EDT    1.63   2.00   22    8   25  64.6 -99.9 1021.3 -9.9 -9.999 -99.9 -99.99 -9.99
2018/10/18 01:12 EDT    1.68   2.07   22   13   25  64.8 -99.9 1021.4 -9.9 -9.999 -99.9 -99.99 -9.99
2018/10/18 01:18 EDT    1.72   2.05   22    2   25  64.8 -99.9 1021.4 -9.9 -9.999 -99.9 -99.99 -9.99
2018/10/18 01:24 EDT    1.76   2.19   23  360   26  64.6 -99.9 1021.5 -9.9 -9.999 -99.9 -99.99 -9.99
2018/10/18 01:30 EDT    1.80   2.34   24  359   26  64.4 -99.9 1021.6 -9.9 -9.999 -99.9 -99.99 -9.99
2018/10/18 01:36 EDT    1.85   2.23   23  357   29  64.2 -99.9 1021.6 -9.9 -9.999 -99.9 -99.99 -9.99
2018/10/18 01:42 EDT    1.89   2.30   22    6   29  64.2 -99.9 1021.7 -9.9 -9.999 -99.9 -99.99 -9.99
2018/10/18 01:48 EDT    1.93   2.30   24  359   27  64.0 -99.9 1021.7 -9.9 -9.999 -99.9 -99.99 -9.99
2018/10/18 01:54 EDT    1.97   2.29   22    5   27  64.2 -99.9 1021.7 -9.9 -9.999 -99.9 -99.99 -9.99
2018/10/18 02:00 EDT    2.01   2.39   24    3   27  64.0 -99.9 1021.7 -9.9 -9.999 -99.9 -99.99 -9.99
2018/10/18 02:06 EDT    2.05   2.38   23  356   27  63.9 -99.9 1021.8 -9.9 -9.999 -99.9 -99.99 -9.99
2018/10/18 02:12 EDT    2.08   2.43   24    1   29  63.9 -99.9 1021.7 -9.9 -9.999 -99.9 -99.99 -9.99
2018/10/18 02:18 EDT    2.12   2.38   23    5   28  63.9 -99.9 1021.7 -9.9 -9.999 -99.9 -99.99 -9.99
2018/10/18 02:24 EDT    2.15   2.41   23  348   28  63.9 -99.9 1021.9 -9.9 -9.999 -99.9 -99.99 -9.99
2018/10/18 02:30 EDT    2.18   2.46   23    8   27  63.7 -99.9 1021.9 -9.9 -9.999 -99.9 -99.99 -9.99
2018/10/18 02:36 EDT    2.21   2.50   22  359   27  63.7 -99.9 1022.1 -9.9 -9.999 -99.9 -99.99 -9.99
2018/10/18 02:42 EDT    2.24   2.56   25    3   28  63.5 -99.9 1022.1 -9.9 -9.999 -99.9 -99.99 -9.99
2018/10/18 02:48 EDT    2.27   2.58   23    3   26  63.5 -99.9 1022.0 -9.9 -9.999 -99.9 -99.99 -9.99
2018/10/18 02:54 EDT    2.29   2.55   22    3   28  63.5 -99.9 1022.1 -9.9 -9.999 -99.9 -99.99 -9.99
2018/10/18 03:00 EDT    2.31   2.54   21  355   25  63.5 -99.9 1022.3 -9.9 -9.999 -99.9 -99.99 -9.99
2018/10/18 03:06 EDT    2.33   2.61   22  356   27  63.3 -99.9 1022.4 -9.9 -9.999 -99.9 -99.99 -9.99
2018/10/18 03:12 EDT    2.35   2.51   21  358   26  63.1 -99.9 1022.4 -9.9 -9.999 -99.9 -99.99 -9.99
2018/10/18 03:18 EDT    2.37   2.62   20  356   26  63.5 -99.9 1022.6 -9.9 -9.999 -99.9 -99.99 -9.99
2018/10/18 03:24 EDT    2.39   2.49   22    1   28  63.1 -99.9 1022.5 -9.9 -9.999 -99.9 -99.99 -9.99
2018/10/18 03:30 EDT    2.40   2.59   22  360   28  62.8 -99.9 1022.6 -9.9 -9.999 -99.9 -99.99 -9.99
2018/10/18 03:36 EDT    2.41   2.68   24    2   29  62.8 -99.9 1022.8 -9.9 -9.999 -99.9 -99.99 -9.99
2018/10/18 03:42 EDT    2.42   2.83   25  359   31  62.2 -99.9 1022.9 -9.9 -9.999 -99.9 -99.99 -9.99
2018/10/18 03:48 EDT    2.43   2.82   29  357   32  61.7 -99.9 1023.0 -9.9 -9.999 -99.9 -99.99 -9.99
2018/10/18 03:54 EDT    2.43   2.77   25  351   32  61.9 -99.9 1023.2 -9.9 -9.999 -99.9 -99.99 -9.99
2018/10/18 04:00 EDT    2.44   2.75   25  356   29  61.5 -99.9 1023.2 -9.9 -9.999 -99.9 -99.99 -9.99
2018/10/18 04:06 EDT    2.44   2.71   27  347   31  61.2 -99.9 1023.3 -9.9 -9.999 -99.9 -99.99 -9.99
2018/10/18 04:12 EDT    2.44   2.73   25  349   29  61.3 -99.9 1023.4 -9.9 -9.999 -99.9 -99.99 -9.99
2018/10/18 04:18 EDT    2.44   2.87   24    4   28  61.5 -99.9 1023.4 -9.9 -9.999 -99.9 -99.99 -9.99
2018/10/18 04:24 EDT    2.44   2.92   26    1   30  61.3 -99.9 1023.5 -9.9 -9.999 -99.9 -99.99 -9.99
2018/10/18 04:30 EDT    2.43   3.01   23    6   30  61.9 -99.9 1023.6 -9.9 -9.999 -99.9 -99.99 -9.99
2018/10/18 04:36 EDT    2.43   2.76   25   10   30  61.2 -99.9 1023.7 -9.9 -9.999 -99.9 -99.99 -9.99
2018/10/18 04:42 EDT    2.42   2.71   23    2   28  61.2 -99.9 1023.8 -9.9 -9.999 -99.9 -99.99 -9.99
2018/10/18 04:48 EDT    2.41   2.76   23    7   31  61.2 -99.9 1023.8 -9.9 -9.999 -99.9 -99.99 -9.99
2018/10/18 04:54 EDT    2.40   2.70   26    3   29  61.2 -99.9 1023.8 -9.9 -9.999 -99.9 -99.99 -9.99
2018/10/18 05:00 EDT    2.39   2.78   24   14   29  61.2 -99.9 1023.7 -9.9 -9.999 -99.9 -99.99 -9.99
2018/10/18 05:06 EDT    2.38   2.80   25   25   31  61.0 -99.9 1023.8 -9.9 -9.999 -99.9 -99.99 -9.99
2018/10/18 05:12 EDT    2.37   2.81   25   18   32  60.6 -99.9 1024.1 -9.9 -9.999 -99.9 -99.99 -9.99
2018/10/18 05:18 EDT    2.35   2.78   26   19   29  60.8 -99.9 1023.9 -9.9 -9.999 -99.9 -99.99 -9.99
2018/10/18 05:24 EDT    2.33   2.76   26   12   31  60.4 -99.9 1024.0 -9.9 -9.999 -99.9 -99.99 -9.99
2018/10/18 05:30 EDT    2.31   2.77   23   34   34  59.5 -99.9 1024.3 -9.9 -9.999 -99.9 -99.99 -9.99
2018/10/18 05:36 EDT    2.29   2.67   25   40   28  59.4 -99.9 1024.4 -9.9 -9.999 -99.9 -99.99 -9.99
2018/10/18 05:42 EDT    2.27   2.60   24   40   27  59.0 -99.9 1024.4 -9.9 -9.999 -99.9 -99.99 -9.99
2018/10/18 05:48 EDT    2.25   2.64   23   43   27  59.0 -99.9 1024.5 -9.9 -9.999 -99.9 -99.99 -9.99
2018/10/18 05:54 EDT    2.22   2.80   23   37   30  58.8 -99.9 1024.7 -9.9 -9.999 -99.9 -99.99 -9.99
2018/10/18 06:00 EDT    2.19   2.63   20   35   27  58.6 -99.9 1024.8 -9.9 -9.999 -99.9 -99.99 -9.99
2018/10/18 06:06 EDT    2.16   2.66   22   38   26  58.5 -99.9 1025.0 -9.9 -9.999 -99.9 -99.99 -9.99
2018/10/18 06:12 EDT    2.13   2.60   21   43   24  58.1 -99.9 1025.1 -9.9 -9.999 -99.9 -99.99 -9.99
2018/10/18 06:18 EDT    2.09   2.46   20   44   25  57.7 -99.9 1025.2 -9.9 -9.999 -99.9 -99.99 -9.99
2018/10/18 06:24 EDT    2.06   2.52   23   44   27  57.6 -99.9 1025.4 -9.9 -9.999 -99.9 -99.99 -9.99
2018/10/18 06:30 EDT    2.02   2.49   21   42   25  57.7 -99.9 1025.4 -9.9 -9.999 -99.9 -99.99 -9.99
2018/10/18 06:36 EDT    1.98   2.54   20   47   23  57.6 -99.9 1025.6 -9.9 -9.999 -99.9 -99.99 -9.99
2018/10/18 06:42 EDT    1.94   2.51   20   36   24  57.7 -99.9 1025.7 -9.9 -9.999 -99.9 -99.99 -9.99
2018/10/18 06:48 EDT    1.90   2.38   17   32   24  57.7 -99.9 1025.9 -9.9 -9.999 -99.9 -99.99 -9.99
2018/10/18 06:54 EDT    1.86   2.46   19   29   24  57.6 -99.9 1026.0 -9.9 -9.999 -99.9 -99.99 -9.99
2018/10/18 07:00 EDT    1.82   2.36   22   24   26  58.5 -99.9 1025.9 -9.9 -9.999 -99.9 -99.99 -9.99
2018/10/18 07:06 EDT    1.77   2.27   22   11   27  57.9 -99.9 1026.1 -9.9 -9.999 -99.9 -99.99 -9.99
2018/10/18 07:12 EDT    1.73   2.31   21   15   26  58.5 -99.9 1026.2 -9.9 -9.999 -99.9 -99.99 -9.99
2018/10/18 07:18 EDT    1.68   2.14   23   15   28  57.9 -99.9 1026.1 -9.9 -9.999 -99.9 -99.99 -9.99
2018/10/18 07:24 EDT    1.64   2.02   22    2   27  57.9 -99.9 1026.3 -9.9 -9.999 -99.9 -99.99 -9.99
2018/10/18 07:30 EDT    1.59   2.22   20    6   28  58.1 -99.9 1026.3 -9.9 -9.999 -99.9 -99.99 -9.99
2018/10/18 07:36 EDT    1.54   2.01   22   15   27  57.6 -99.9 1026.5 -9.9 -9.999 -99.9 -99.99 -9.99
2018/10/18 07:42 EDT    1.50   1.96   24  359   27  57.2 -99.9 1026.5 -9.9 -9.999 -99.9 -99.99 -9.99
2018/10/18 07:48 EDT    1.45   1.86   21    9   26  57.6 -99.9 1026.6 -9.9 -9.999 -99.9 -99.99 -9.99
2018/10/18 07:54 EDT    1.41   1.89   24    2   27  57.4 -99.9 1026.7 -9.9 -9.999 -99.9 -99.99 -9.99
2018/10/18 08:00 EDT    1.36   1.74   21    7   26  57.2 -99.9 1026.7 -9.9 -9.999 -99.9 -99.99 -9.99
2018/10/18 08:06 EDT    1.32   1.77   21    4   28  57.7 -99.9 1026.8 -9.9 -9.999 -99.9 -99.99 -9.99
2018/10/18 08:12 EDT    1.28   1.77   17   44   22  56.7 -99.9 1027.0 -9.9 -9.999 -99.9 -99.99 -9.99
2018/10/18 08:18 EDT    1.24   1.74   20   44   23  56.3 -99.9 1027.1 -9.9 -9.999 -99.9 -99.99 -9.99
2018/10/18 08:24 EDT    1.20   1.75   21   41   25  55.8 -99.9 1027.2 -9.9 -9.999 -99.9 -99.99 -9.99
2018/10/18 08:30 EDT    1.16   1.61   22   47   26  55.4 -99.9 1027.4 -9.9 -9.999 -99.9 -99.99 -9.99
2018/10/18 08:36 EDT    1.13   1.66   22   40   26  55.4 -99.9 1027.4 -9.9 -9.999 -99.9 -99.99 -9.99
2018/10/18 08:42 EDT    1.09   1.58   22   45   27  55.6 -99.9 1027.5 -9.9 -9.999 -99.9 -99.99 -9.99
2018/10/18 08:48 EDT    1.06   1.47   21   49   25  55.8 -99.9 1027.7 -9.9 -9.999 -99.9 -99.99 -9.99
2018/10/18 08:54 EDT    1.03   1.48   21   50   24  56.1 -99.9 1027.8 -9.9 -9.999 -99.9 -99.99 -9.99
2018/10/18 09:00 EDT    1.00   1.49   20   40   24  55.6 -99.9 1027.9 -9.9 -9.999 -99.9 -99.99 -9.99
2018/10/18 09:06 EDT    0.97   1.35   20   42   24  55.6 -99.9 1028.1 -9.9 -9.999 -99.9 -99.99 -9.99
2018/10/18 09:12 EDT    0.95   1.41   22   46   25  55.4 -99.9 1028.1 -9.9 -9.999 -99.9 -99.99 -9.99
2018/10/18 09:18 EDT    0.93   1.44   20   44   23  55.4 -99.9 1028.1 -9.9 -9.999 -99.9 -99.99 -9.99
2018/10/18 09:24 EDT    0.91   1.56   21   38   23  55.0 -99.9 1028.4 -9.9 -9.999 -99.9 -99.99 -9.99
2018/10/18 09:30 EDT    0.89   1.43   18   54   22  54.9 -99.9 1028.5 -9.9 -9.999 -99.9 -99.99 -9.99
2018/10/18 09:36 EDT    0.87   1.42   17   63   21  54.5 -99.9 1028.6 -9.9 -9.999 -99.9 -99.99 -9.99
2018/10/18 09:42 EDT    0.86   1.40   17   59   22  54.7 -99.9 1028.7 -9.9 -9.999 -99.9 -99.99 -9.99
2018/10/18 09:48 EDT    0.85   1.36   15   52   21  53.8 -99.9 1028.9 -9.9 -9.999 -99.9 -99.99 -9.99
2018/10/18 09:54 EDT    0.84   1.38   17   50   22  54.1 -99.9 1028.9 -9.9 -9.999 -99.9 -99.99 -9.99
2018/10/18 10:00 EDT    0.83   1.37   16   56   20  54.7 -99.9 1028.9 -9.9 -9.999 -99.9 -99.99 -9.99
2018/10/18 10:06 EDT    0.82   1.33   15   53   22  54.1 -99.9 1029.0 -9.9 -9.999 -99.9 -99.99 -9.99
2018/10/18 10:12 EDT    0.82   1.29   15   50   18  54.1 -99.9 1029.0 -9.9 -9.999 -99.9 -99.99 -9.99
2018/10/18 10:18 EDT    0.82   1.40   14   36   19  54.3 -99.9 1028.9 -9.9 -9.999 -99.9 -99.99 -9.99
2018/10/18 10:24 EDT    0.82   1.35   14   43   20  54.0 -99.9 1028.9 -9.9 -9.999 -99.9 -99.99 -9.99
2018/10/18 10:30 EDT    0.83   1.27   13   50   18  54.3 -99.9 1029.0 -9.9 -9.999 -99.9 -99.99 -9.99
2018/10/18 10:36 EDT    0.84   1.37   12   50   17  54.1 -99.9 1028.9 -9.9 -9.999 -99.9 -99.99 -9.99
2018/10/18 10:42 EDT    0.85   1.38   14   38   19  54.5 -99.9 1029.0 -9.9 -9.999 -99.9 -99.99 -9.99
2018/10/18 10:48 EDT    0.86   1.28   11   19   16  54.9 -99.9 1029.0 -9.9 -9.999 -99.9 -99.99 -9.99
2018/10/18 10:54 EDT    0.87   1.33   13   16   15  55.4 -99.9 1028.9 -9.9 -9.999 -99.9 -99.99 -9.99
2018/10/18 11:00 EDT    0.89   1.37   20   17   24  55.6 -99.9 1028.8 -9.9 -9.999 -99.9 -99.99 -9.99
2018/10/18 11:06 EDT    0.90   1.33   19   15   26  55.8 -99.9 1028.9 -9.9 -9.999 -99.9 -99.99 -9.99
2018/10/18 11:12 EDT    0.92   1.37   21    0   24  55.2 -99.9 1028.7 -9.9 -9.999 -99.9 -99.99 -9.99
2018/10/18 11:18 EDT    0.95   1.35   17    6   24  55.4 -99.9 1028.9 -9.9 -9.999 -99.9 -99.99 -9.99
2018/10/18 11:24 EDT    0.97   1.39   19   13   22  55.2 -99.9 1028.9 -9.9 -9.999 -99.9 -99.99 -9.99
2018/10/18 11:30 EDT    1.00   1.43   19    1   23  55.0 -99.9 1029.1 -9.9 -9.999 -99.9 -99.99 -9.99
2018/10/18 11:36 EDT    1.02   1.46   17    1   23  55.0 -99.9 1029.1 -9.9 -9.999 -99.9 -99.99 -9.99
2018/10/18 11:42 EDT    1.05   1.47   17  353   23  55.2 -99.9 1029.2 -9.9 -9.999 -99.9 -99.99 -9.99
2018/10/18 11:48 EDT    1.09   1.56   19  357   22  55.0 -99.9 1029.2 -9.9 -9.999 -99.9 -99.99 -9.99
2018/10/18 11:54 EDT    1.12   1.61   18    5   23  55.0 -99.9 1029.2 -9.9 -9.999 -99.9 -99.99 -9.99
2018/10/18 12:00 EDT    1.15   1.60   17    2   22  54.9 -99.9 1029.3 -9.9 -9.999 -99.9 -99.99 -9.99
2018/10/18 12:06 EDT    1.19   1.64   17    6   21  55.0 -99.9 1029.3 -9.9 -9.999 -99.9 -99.99 -9.99
2018/10/18 12:12 EDT    1.23   1.56   17    0   21  55.0 -99.9 1029.2 -9.9 -9.999 -99.9 -99.99 -9.99
2018/10/18 12:18 EDT    1.27   1.54   17  353   22  54.9 -99.9 1029.4 -9.9 -9.999 -99.9 -99.99 -9.99
2018/10/18 12:24 EDT    1.31   1.63   18  355   23  55.0 -99.9 1029.2 -9.9 -9.999 -99.9 -99.99 -9.99
2018/10/18 12:30 EDT    1.35   1.69   17  359   21  54.7 -99.9 1029.2 -9.9 -9.999 -99.9 -99.99 -9.99
2018/10/18 12:36 EDT    1.39   1.65   15    5   22  55.0 -99.9 1029.1 -9.9 -9.999 -99.9 -99.99 -9.99
2018/10/18 12:42 EDT    1.43   1.73   13   10   22  55.0 -99.9 1029.0 -9.9 -9.999 -99.9 -99.99 -9.99
2018/10/18 12:48 EDT    1.48   1.73   16  341   18  55.0 -99.9 1029.0 -9.9 -9.999 -99.9 -99.99 -9.99
2018/10/18 12:54 EDT    1.52   1.76   13  336   17  55.6 -99.9 1028.9 -9.9 -9.999 -99.9 -99.99 -9.99
2018/10/18 13:00 EDT    1.57   1.76   15  340   19  55.2 -99.9 1028.9 -9.9 -9.999 -99.9 -99.99 -9.99
2018/10/18 13:06 EDT    1.61   1.82   15  353   19  55.2 -99.9 1028.7 -9.9 -9.999 -99.9 -99.99 -9.99
2018/10/18 13:12 EDT    1.66   1.88   13  358   21  55.2 -99.9 1028.6 -9.9 -9.999 -99.9 -99.99 -9.99
2018/10/18 13:18 EDT    1.71   1.91   16  358   20  55.0 -99.9 1028.5 -9.9 -9.999 -99.9 -99.99 -9.99
2018/10/18 13:24 EDT    1.75   1.88   17    1   21  55.0 -99.9 1028.4 -9.9 -9.999 -99.9 -99.99 -9.99
2018/10/18 13:30 EDT    1.80   1.95   17  357   20  55.2 -99.9 1028.3 -9.9 -9.999 -99.9 -99.99 -9.99
2018/10/18 13:36 EDT    1.85   1.99   13    5   19  55.2 -99.9 1028.3 -9.9 -9.999 -99.9 -99.99 -9.99
2018/10/18 13:42 EDT    1.90   1.98   16  337   21  55.4 -99.9 1028.1 -9.9 -9.999 -99.9 -99.99 -9.99
2018/10/18 13:48 EDT    1.95   2.08   16  341   22  55.6 -99.9 1028.1 -9.9 -9.999 -99.9 -99.99 -9.99
2018/10/18 13:54 EDT    1.99   2.10   16  355   18  55.6 -99.9 1028.0 -9.9 -9.999 -99.9 -99.99 -9.99
2018/10/18 14:00 EDT    2.04   2.18   13  345   18  55.6 -99.9 1028.0 -9.9 -9.999 -99.9 -99.99 -9.99
2018/10/18 14:06 EDT    2.09   2.19   13  359   16  55.8 -99.9 1027.9 -9.9 -9.999 -99.9 -99.99 -9.99
2018/10/18 14:12 EDT    2.13   2.23   14  331   22  55.8 -99.9 1027.8 -9.9 -9.999 -99.9 -99.99 -9.99
2018/10/18 14:18 EDT    2.17   2.28   12  348   16  55.9 -99.9 1027.8 -9.9 -9.999 -99.9 -99.99 -9.99
2018/10/18 14:24 EDT    2.22   2.30    9  352   16  56.1 -99.9 1027.8 -9.9 -9.999 -99.9 -99.99 -9.99
2018/10/18 14:30 EDT    2.26   2.35   13    2   18  55.8 -99.9 1027.7 -9.9 -9.999 -99.9 -99.99 -9.99
2018/10/18 14:36 EDT    2.30   2.36   10  337   18  55.9 -99.9 1027.7 -9.9 -9.999 -99.9 -99.99 -9.99
2018/10/18 14:42 EDT    2.34   2.42   10   20   16  56.3 -99.9 1027.7 -9.9 -9.999 -99.9 -99.99 -9.99
2018/10/18 14:48 EDT    2.37   2.44   13  331   18  56.3 -99.9 1027.7 -9.9 -9.999 -99.9 -99.99 -9.99
2018/10/18 14:54 EDT    2.41   2.44   14    3   17  56.7 -99.9 1027.7 -9.9 -9.999 -99.9 -99.99 -9.99
2018/10/18 15:00 EDT    2.44   2.58   11  353   16  56.3 -99.9 1027.6 -9.9 -9.999 -99.9 -99.99 -9.99
2018/10/18 15:06 EDT    2.47   2.52   13   17   17  56.5 -99.9 1027.5 -9.9 -9.999 -99.9 -99.99 -9.99
2018/10/18 15:12 EDT    2.50   2.58   10   13   14  56.5 -99.9 1027.5 -9.9 -9.999 -99.9 -99.99 -9.99
2018/10/18 15:18 EDT    2.53   2.58   14  353   18  56.3 -99.9 1027.6 -9.9 -9.999 -99.9 -99.99 -9.99
2018/10/18 15:24 EDT    2.55   2.65   13  359   16  56.8 -99.9 1027.4 -9.9 -9.999 -99.9 -99.99 -9.99
2018/10/18 15:30 EDT    2.58   2.65    8  359   15  56.8 -99.9 1027.5 -9.9 -9.999 -99.9 -99.99 -9.99
2018/10/18 15:36 EDT    2.60   2.70   12   13   17  57.0 -99.9 1027.5 -9.9 -9.999 -99.9 -99.99 -9.99
2018/10/18 15:42 EDT    2.62   2.70    9    9   16  56.8 -99.9 1027.6 -9.9 -9.999 -99.9 -99.99 -9.99
2018/10/18 15:48 EDT    2.63   2.70   10  358   15  56.8 -99.9 1027.6 -9.9 -9.999 -99.9 -99.99 -9.99
2018/10/18 15:54 EDT    2.65   2.77 -999 -999 -999 -99.9 -99.9 -999.9 -9.9 -9.999 -99.9 -99.99 -9.99
2018/10/18 16:00 EDT    2.66   2.74   11   12   14  57.0 -99.9 1027.5 -9.9 -9.999 -99.9 -99.99 -9.99
2018/10/18 16:06 EDT    2.67   2.68   11    8   17  57.0 -99.9 1027.5 -9.9 -9.999 -99.9 -99.99 -9.99
2018/10/18 16:12 EDT    2.68   2.76   13    5   17  57.2 -99.9 1027.6 -9.9 -9.999 -99.9 -99.99 -9.99
2018/10/18 16:18 EDT    2.68   2.76    9    7   15  57.4 -99.9 1027.6 -9.9 -9.999 -99.9 -99.99 -9.99
2018/10/18 16:24 EDT    2.69   2.73   10   10   15  57.4 -99.9 1027.6 -9.9 -9.999 -99.9 -99.99 -9.99
2018/10/18 16:30 EDT    2.69   2.71   10  349   13  57.7 -99.9 1027.7 -9.9 -9.999 -99.9 -99.99 -9.99
2018/10/18 16:36 EDT    2.69   2.73   12    7   14  57.6 -99.9 1027.7 -9.9 -9.999 -99.9 -99.99 -9.99
2018/10/18 16:42 EDT    2.69   2.74   13    5   16  57.4 -99.9 1027.7 -9.9 -9.999 -99.9 -99.99 -9.99
2018/10/18 16:48 EDT    2.69   2.72   10    7   13  57.9 -99.9 1027.7 -9.9 -9.999 -99.9 -99.99 -9.99
2018/10/18 16:54 EDT    2.68   2.73    9   15   15  57.9 -99.9 1027.7 -9.9 -9.999 -99.9 -99.99 -9.99
2018/10/18 17:00 EDT    2.68   2.76   11  351   13  57.9 -99.9 1027.8 -9.9 -9.999 -99.9 -99.99 -9.99
2018/10/18 17:06 EDT    2.67   2.71   11    7   12  57.9 -99.9 1027.8 -9.9 -9.999 -99.9 -99.99 -9.99
2018/10/18 17:12 EDT    2.66   2.73   11    0   15  57.7 -99.9 1027.7 -9.9 -9.999 -99.9 -99.99 -9.99
2018/10/18 17:18 EDT    2.65   2.66    8  346   13  58.1 -99.9 1027.8 -9.9 -9.999 -99.9 -99.99 -9.99
2018/10/18 17:24 EDT    2.64   2.69   11   29   14  57.7 -99.9 1027.8 -9.9 -9.999 -99.9 -99.99 -9.99
2018/10/18 17:30 EDT    2.62   2.70    9   11   12  57.6 -99.9 1027.8 -9.9 -9.999 -99.9 -99.99 -9.99
2018/10/18 17:36 EDT    2.61   2.71    8   19   12  57.7 -99.9 1027.8 -9.9 -9.999 -99.9 -99.99 -9.99
2018/10/18 17:42 EDT    2.59 -99.99 -999 -999 -999 -99.9 -99.9 -999.9 -9.9 -9.999 -99.9 -99.99 -9.99
2018/10/18 17:48 EDT    2.57 -99.99 -999 -999 -999 -99.9 -99.9 -999.9 -9.9 -9.999 -99.9 -99.99 -9.99

Revised: 08/08/2018
NOAA / National Ocean Service
Web site owner: Center for Operational Oceanographic Products and Services